Observation data for Amarillo 7 South Southeast on 11/11/2019      Previous  Date       Current Mesonet Observations  Soil Data  Daily Summary Page  Observations in Plain Language
KAM1 110600Z 34007KT 06/M01 A2991 RMK A01 T00591011  RH  061%=      5-min Rain = 0
KAM1 110601Z 34006KT 06/M01 A2991 RMK A01 T00581012  RH  061%=      5-min Rain = 0
KAM1 110602Z 34007KT 06/M01 A2991 RMK A01 T00581012  RH  061%=      5-min Rain = 0
KAM1 110603Z 34007KT 06/M01 A2991 RMK A01 T00581012  RH  061%=      5-min Rain = 0
KAM1 110604Z 34008KT 06/M01 A2991 RMK A01 T00591012  RH  060%=      5-min Rain = 0
KAM1 110605Z 34007KT 06/M01 A2991 RMK A01 T00611011  RH  060%=      5-min Rain = 0
KAM1 110606Z 34007KT 06/M01 A2991 RMK A01 T00621011  RH  060%=      5-min Rain = 0
KAM1 110607Z 34009KT 06/M01 A2991 RMK A01 T00631011  RH  059%=      5-min Rain = 0
KAM1 110608Z 34009KT 06/M01 A2992 RMK A01 T00641010  RH  059%=      5-min Rain = 0
KAM1 110609Z 34009KT 07/M01 A2992 RMK A01 T00661008  RH  059%=      5-min Rain = 0
KAM1 110610Z 34009KT 07/M01 A2992 RMK A01 T00681007  RH  059%=      5-min Rain = 0
KAM1 110611Z 34009KT 07/M01 A2992 RMK A01 T00681006  RH  059%=      5-min Rain = 0
KAM1 110612Z 34009KT 07/M01 A2992 RMK A01 T00691006  RH  059%=      5-min Rain = 0
KAM1 110613Z 35010KT 07/M01 A2992 RMK A01 T00701005  RH  059%=      5-min Rain = 0
KAM1 110614Z 35009KT 07/M01 A2992 RMK A01 T00721005  RH  058%=      5-min Rain = 0
KAM1 110615Z 35008KT 07/M00 A2992 RMK A01 T00731004  RH  058%=      5-min Rain = 0
KAM1 110616Z 35008KT 07/M00 A2992 RMK A01 T00741004  RH  058%=      5-min Rain = 0
KAM1 110617Z 35009KT 08/M00 A2992 RMK A01 T00751004  RH  057%=      5-min Rain = 0
KAM1 110618Z 35009KT 08/M00 A2992 RMK A01 T00751004  RH  057%=      5-min Rain = 0
KAM1 110619Z 35009KT 08/M00 A2992 RMK A01 T00751004  RH  057%=      5-min Rain = 0
KAM1 110620Z 35009KT 08/M00 A2992 RMK A01 T00761004  RH  057%=      5-min Rain = 0
KAM1 110621Z 35009KT 08/M00 A2992 RMK A01 T00761004  RH  057%=      5-min Rain = 0
KAM1 110622Z 35009KT 08/M00 A2992 RMK A01 T00751004  RH  057%=      5-min Rain = 0
KAM1 110623Z 35009KT 07/M00 A2991 RMK A01 T00741004  RH  058%=      5-min Rain = 0
KAM1 110624Z 36010KT 07/M00 A2991 RMK A01 T00741004  RH  058%=      5-min Rain = 0
KAM1 110625Z 35009KT 07/M00 A2991 RMK A01 T00741003  RH  058%=      5-min Rain = 0
KAM1 110626Z 36011KT 07/M00 A2991 RMK A01 T00741003  RH  058%=      5-min Rain = 0
KAM1 110627Z 35010KT 07/M00 A2991 RMK A01 T00741003  RH  058%=      5-min Rain = 0
KAM1 110628Z 36011KT 07/M00 A2991 RMK A01 T00741003  RH  058%=      5-min Rain = 0
KAM1 110629Z 36009KT 07/M00 A2991 RMK A01 T00741003  RH  058%=      5-min Rain = 0
KAM1 110630Z 35011KT 07/M00 A2991 RMK A01 T00741003  RH  058%=      5-min Rain = 0
KAM1 110631Z 35012KT 07/M00 A2992 RMK A01 T00741003  RH  058%=      5-min Rain = 0
KAM1 110632Z 36010KT 07/M00 A2992 RMK A01 T00741003  RH  058%=      5-min Rain = 0
KAM1 110633Z 00010KT 07/M00 A2992 RMK A01 T00741003  RH  058%=      5-min Rain = 0
KAM1 110634Z 00009KT 07/M00 A2992 RMK A01 T00731003  RH  058%=      5-min Rain = 0
KAM1 110635Z 36010KT 07/M00 A2992 RMK A01 T00731003  RH  059%=      5-min Rain = 0
KAM1 110636Z 35012KT 07/M00 A2992 RMK A01 T00721003  RH  059%=      5-min Rain = 0
KAM1 110637Z 00012KT 07/M00 A2992 RMK A01 T00721003  RH  059%=      5-min Rain = 0
KAM1 110638Z 36009KT 07/M00 A2992 RMK A01 T00721003  RH  059%=      5-min Rain = 0
KAM1 110639Z 00009KT 07/M00 A2992 RMK A01 T00711003  RH  059%=      5-min Rain = 0
KAM1 110640Z 36009KT 07/M00 A2992 RMK A01 T00701003  RH  060%=      5-min Rain = 0
KAM1 110641Z 36011KT 07/M00 A2992 RMK A01 T00691003  RH  060%=      5-min Rain = 0
KAM1 110642Z 36012KT 07/M00 A2992 RMK A01 T00681003  RH  060%=      5-min Rain = 0
KAM1 110643Z 36013KT 07/M00 A2992 RMK A01 T00681003  RH  060%=      5-min Rain = 0
KAM1 110644Z 36011KT 07/M00 A2992 RMK A01 T00671003  RH  061%=      5-min Rain = 0
KAM1 110645Z 01012KT 07/M00 A2992 RMK A01 T00661003  RH  061%=      5-min Rain = 0
KAM1 110646Z 36014KT 07/M00 A2993 RMK A01 T00661003  RH  061%=      5-min Rain = 0
KAM1 110647Z 36012KT 07/M00 A2993 RMK A01 T00651003  RH  062%=      5-min Rain = 0
KAM1 110648Z 36010KT 07/M00 A2993 RMK A01 T00651003  RH  062%=      5-min Rain = 0
KAM1 110649Z 00012KT 06/M00 A2993 RMK A01 T00631004  RH  062%=      5-min Rain = 0
KAM1 110650Z 36010KT 06/M00 A2993 RMK A01 T00631003  RH  062%=      5-min Rain = 0
KAM1 110651Z 36010KT 06/M00 A2993 RMK A01 T00631003  RH  063%=      5-min Rain = 0
KAM1 110652Z 36012KT 06/M00 A2993 RMK A01 T00621003  RH  063%=      5-min Rain = 0
KAM1 110653Z 00014KT 06/M00 A2993 RMK A01 T00631002  RH  063%=      5-min Rain = 0
KAM1 110654Z 00011KT 06/M00 A2993 RMK A01 T00621002  RH  063%=      5-min Rain = 0
KAM1 110655Z 00012KT 06/M00 A2993 RMK A01 T00621002  RH  064%=      5-min Rain = 0
KAM1 110656Z 00012G17KT 06/M00 A2994 RMK A01 T00621002  RH  064%=      5-min Rain = 0
KAM1 110657Z 01011KT 06/M00 A2994 RMK A01 T00621002  RH  064%=      5-min Rain = 0
KAM1 110658Z 00012KT 06/M00 A2994 RMK A01 T00611001  RH  064%=      5-min Rain = 0
KAM1 110659Z 01009G14KT 06/M00 A2994 RMK A01 T00611001  RH  064%=      5-min Rain = 0
KAM1 110700Z 00012KT 06/M00 A2994 RMK A01 T00601001  RH  065%=      5-min Rain = 0
KAM1 110701Z 00012KT 06/M00 A2994 RMK A01 T00601001  RH  065%=      5-min Rain = 0
KAM1 110702Z 01014KT 06/M00 A2994 RMK A01 T00601001  RH  065%=      5-min Rain = 0
KAM1 110703Z 01011KT 06/00 A2994 RMK A01 T00600000  RH  065%=      5-min Rain = 0
KAM1 110704Z 01011KT 06/00 A2994 RMK A01 T005900-0  RH  066%=      5-min Rain = 0
KAM1 110705Z 01012KT 06/00 A2994 RMK A01 T005900-0  RH  066%=      5-min Rain = 0
KAM1 110706Z 01010KT 06/00 A2994 RMK A01 T005800-0  RH  066%=      5-min Rain = 0
KAM1 110707Z 00011KT 06/00 A2994 RMK A01 T00580000  RH  066%=      5-min Rain = 0
KAM1 110708Z 01013KT 06/00 A2994 RMK A01 T00570000  RH  067%=      5-min Rain = 0
KAM1 110709Z 01012KT 06/00 A2994 RMK A01 T00570001  RH  067%=      5-min Rain = 0
KAM1 110710Z 01012KT 06/00 A2994 RMK A01 T00570001  RH  067%=      5-min Rain = 0
KAM1 110711Z 36012KT 06/00 A2994 RMK A01 T00570002  RH  067%=      5-min Rain = 0
KAM1 110712Z 36012KT 06/00 A2994 RMK A01 T00570002  RH  068%=      5-min Rain = 0
KAM1 110713Z 01011G16KT 06/00 A2994 RMK A01 T00580003  RH  068%=      5-min Rain = 0
KAM1 110714Z 01013G18KT 06/00 A2994 RMK A01 T00580003  RH  068%=      5-min Rain = 0
KAM1 110715Z 01012KT 06/00 A2994 RMK A01 T00580004  RH  068%=      5-min Rain = 0
KAM1 110716Z 01013G18KT 06/00 A2994 RMK A01 T00580004  RH  068%=      5-min Rain = 0
KAM1 110717Z 01013G18KT 06/01 A2994 RMK A01 T00570005  RH  069%=      5-min Rain = 0
KAM1 110718Z 00010KT 06/01 A2994 RMK A01 T00570005  RH  069%=      5-min Rain = 0
KAM1 110719Z 01012KT 06/01 A2994 RMK A01 T00560005  RH  069%=      5-min Rain = 0
KAM1 110720Z 00015KT 06/01 A2994 RMK A01 T00560005  RH  070%=      5-min Rain = 0
KAM1 110721Z 01014KT 06/01 A2995 RMK A01 T00570006  RH  070%=      5-min Rain = 0
KAM1 110722Z 00014KT 06/01 A2995 RMK A01 T00570007  RH  070%=      5-min Rain = 0
KAM1 110723Z 01013KT 06/01 A2995 RMK A01 T00570007  RH  070%=      5-min Rain = 0
KAM1 110724Z 01014KT 06/01 A2995 RMK A01 T00570007  RH  070%=      5-min Rain = 0
KAM1 110725Z 01015G21KT 06/01 A2995 RMK A01 T00570007  RH  070%=      5-min Rain = 0
KAM1 110726Z 01017KT 06/01 A2994 RMK A01 T00570007  RH  070%=      5-min Rain = 0
KAM1 110727Z 01017G23KT 06/01 A2995 RMK A01 T00570007  RH  070%=      5-min Rain = 0
KAM1 110728Z 01016KT 06/01 A2994 RMK A01 T00570008  RH  071%=      5-min Rain = 0
KAM1 110729Z 01017KT 06/01 A2995 RMK A01 T00570008  RH  071%=      5-min Rain = 0
KAM1 110730Z 01015KT 06/01 A2995 RMK A01 T00560008  RH  071%=      5-min Rain = 0
KAM1 110731Z 01017G22KT 06/01 A2995 RMK A01 T00570008  RH  071%=      5-min Rain = 0
KAM1 110732Z 01013KT 06/01 A2995 RMK A01 T00560008  RH  071%=      5-min Rain = 0
KAM1 110733Z 01016KT 06/01 A2995 RMK A01 T00560008  RH  071%=      5-min Rain = 0
KAM1 110734Z 02014KT 06/01 A2995 RMK A01 T00560008  RH  071%=      5-min Rain = 0
KAM1 110735Z 01017KT 06/01 A2995 RMK A01 T00550008  RH  072%=      5-min Rain = 0
KAM1 110736Z 01016KT 06/01 A2995 RMK A01 T00550008  RH  072%=      5-min Rain = 0
KAM1 110737Z 02015KT 06/01 A2995 RMK A01 T00550008  RH  072%=      5-min Rain = 0
KAM1 110738Z 02016KT 06/01 A2995 RMK A01 T00550008  RH  072%=      5-min Rain = 0
KAM1 110739Z 02017KT 06/01 A2995 RMK A01 T00550008  RH  072%=      5-min Rain = 0
KAM1 110740Z 01016KT 05/01 A2995 RMK A01 T00540008  RH  072%=      5-min Rain = 0
KAM1 110741Z 01016KT 05/01 A2995 RMK A01 T00540008  RH  072%=      5-min Rain = 0
KAM1 110742Z 01019G24KT 05/01 A2996 RMK A01 T00540008  RH  072%=      5-min Rain = 0
KAM1 110743Z 02017KT 05/01 A2996 RMK A01 T00540008  RH  072%=      5-min Rain = 0
KAM1 110744Z 01016KT 05/01 A2996 RMK A01 T00540008  RH  072%=      5-min Rain = 0
KAM1 110745Z 01015KT 05/01 A2996 RMK A01 T00530008  RH  073%=      5-min Rain = 0
KAM1 110746Z 01016KT 05/01 A2996 RMK A01 T00530008  RH  073%=      5-min Rain = 0
KAM1 110747Z 01016KT 05/01 A2996 RMK A01 T00530008  RH  073%=      5-min Rain = 0
KAM1 110748Z 01018G24KT 05/01 A2996 RMK A01 T00530008  RH  073%=      5-min Rain = 0
KAM1 110749Z 01016G21KT 05/01 A2996 RMK A01 T00530008  RH  073%=      5-min Rain = 0
KAM1 110750Z 01014KT 05/01 A2996 RMK A01 T00530008  RH  073%=      5-min Rain = 0
KAM1 110751Z 01014KT 05/01 A2996 RMK A01 T00520008  RH  073%=      5-min Rain = 0
KAM1 110752Z 01015KT 05/01 A2996 RMK A01 T00520008  RH  073%=      5-min Rain = 0
KAM1 110753Z 01018KT 05/01 A2996 RMK A01 T00510008  RH  074%=      5-min Rain = 0
KAM1 110754Z 01018G25KT 05/01 A2996 RMK A01 T00510008  RH  074%=      5-min Rain = 0
KAM1 110755Z 02018G24KT 05/01 A2996 RMK A01 T00510008  RH  074%=      5-min Rain = 0
KAM1 110756Z 01017KT 05/01 A2997 RMK A01 T00510008  RH  074%=      5-min Rain = 0
KAM1 110757Z 01019KT 05/01 A2997 RMK A01 T00510008  RH  074%=      5-min Rain = 0
KAM1 110758Z 01016KT 05/01 A2997 RMK A01 T00510008  RH  074%=      5-min Rain = 0
KAM1 110759Z 02017G22KT 05/01 A2997 RMK A01 T00510008  RH  074%=      5-min Rain = 0
KAM1 110800Z 01017G22KT 05/01 A2997 RMK A01 T00500008  RH  074%=      5-min Rain = 0
KAM1 110801Z 01014KT 05/01 A2997 RMK A01 T00500008  RH  074%=      5-min Rain = 0
KAM1 110802Z 01020KT 05/01 A2998 RMK A01 T00500008  RH  074%=      5-min Rain = 0
KAM1 110803Z 01019G25KT 05/01 A2997 RMK A01 T00490007  RH  074%=      5-min Rain = 0
KAM1 110804Z 01018KT 05/01 A2997 RMK A01 T00490008  RH  074%=      5-min Rain = 0
KAM1 110805Z 01018KT 05/01 A2997 RMK A01 T00490007  RH  074%=      5-min Rain = 0
KAM1 110806Z 02018KT 05/01 A2998 RMK A01 T00490007  RH  074%=      5-min Rain = 0
KAM1 110807Z 01019G25KT 05/01 A2998 RMK A01 T00490007  RH  074%=      5-min Rain = 0
KAM1 110808Z 01016G22KT 05/01 A2998 RMK A01 T00480007  RH  075%=      5-min Rain = 0
KAM1 110809Z 01016G24KT 05/01 A2998 RMK A01 T00480007  RH  075%=      5-min Rain = 0
KAM1 110810Z 01017KT 05/01 A2998 RMK A01 T00470007  RH  075%=      5-min Rain = 0
KAM1 110811Z 01016G21KT 05/01 A2998 RMK A01 T00470007  RH  075%=      5-min Rain = 0
KAM1 110812Z 01018G25KT 05/01 A2998 RMK A01 T00470007  RH  075%=      5-min Rain = 0
KAM1 110813Z 00021KT 05/01 A2998 RMK A01 T00470007  RH  075%=      5-min Rain = 0
KAM1 110814Z 01020G28KT 05/01 A2998 RMK A01 T00470007  RH  075%=      5-min Rain = 0
KAM1 110815Z 36019KT 05/01 A2998 RMK A01 T00470007  RH  075%=      5-min Rain = 0
KAM1 110816Z 01020G26KT 05/01 A2998 RMK A01 T00470007  RH  075%=      5-min Rain = 0
KAM1 110817Z 01019KT 05/01 A2998 RMK A01 T00470007  RH  075%=      5-min Rain = 0
KAM1 110818Z 01018KT 05/01 A2998 RMK A01 T00460007  RH  076%=      5-min Rain = 0
KAM1 110819Z 00016G22KT 05/01 A2998 RMK A01 T00460007  RH  076%=      5-min Rain = 0
KAM1 110820Z 01018KT 05/01 A2998 RMK A01 T00450006  RH  076%=      5-min Rain = 0
KAM1 110821Z 01020KT 05/01 A2998 RMK A01 T00450007  RH  076%=      5-min Rain = 0
KAM1 110822Z 01016KT 05/01 A2998 RMK A01 T00450007  RH  076%=      5-min Rain = 0
KAM1 110823Z 01020G26KT 05/01 A2998 RMK A01 T00450007  RH  076%=      5-min Rain = 0
KAM1 110824Z 00022G27KT 05/01 A2998 RMK A01 T00450007  RH  076%=      5-min Rain = 0
KAM1 110825Z 01020G25KT 04/01 A2998 RMK A01 T00440007  RH  076%=      5-min Rain = 0
KAM1 110826Z 01020G26KT 05/01 A2999 RMK A01 T00450007  RH  076%=      5-min Rain = 0
KAM1 110827Z 01019G24KT 05/01 A2999 RMK A01 T00450007  RH  076%=      5-min Rain = 0
KAM1 110828Z 01017KT 05/01 A2999 RMK A01 T00450007  RH  077%=      5-min Rain = 0
KAM1 110829Z 01018KT 04/01 A2999 RMK A01 T00440007  RH  077%=      5-min Rain = 0
KAM1 110830Z 01018G24KT 04/01 A2999 RMK A01 T00440007  RH  077%=      5-min Rain = 0
KAM1 110831Z 01016G21KT 04/01 A2999 RMK A01 T00440007  RH  077%=      5-min Rain = 0
KAM1 110832Z 01014G20KT 04/01 A2999 RMK A01 T00440007  RH  077%=      5-min Rain = 0
KAM1 110833Z 01017G23KT 04/01 A2999 RMK A01 T00430007  RH  077%=      5-min Rain = 0
KAM1 110834Z 01017G22KT 04/01 A2999 RMK A01 T00430007  RH  078%=      5-min Rain = 0
KAM1 110835Z 01020G27KT 04/01 A2999 RMK A01 T00430007  RH  078%=      5-min Rain = 0
KAM1 110836Z 00021KT 04/01 A30 RMK A01 T00430007  RH  078%=      5-min Rain = 0
KAM1 110837Z 01019G24KT 04/01 A30 RMK A01 T00430007  RH  078%=      5-min Rain = 0
KAM1 110838Z 01024G29KT 04/01 A30 RMK A01 T00440008  RH  077%=      5-min Rain = 0
KAM1 110839Z 01018G24KT 04/01 A30 RMK A01 T00440008  RH  077%=      5-min Rain = 0
KAM1 110840Z 01021G26KT 05/01 A30 RMK A01 T00450008  RH  077%=      5-min Rain = 0
KAM1 110841Z 00021KT 05/01 A30 RMK A01 T00450008  RH  077%=      5-min Rain = 0
KAM1 110842Z 01024KT 05/01 A30 RMK A01 T00460009  RH  077%=      5-min Rain = 0
KAM1 110843Z 00023KT 05/01 A30 RMK A01 T00460009  RH  077%=      5-min Rain = 0
KAM1 110844Z 01018G24KT 05/01 A30 RMK A01 T00460008  RH  077%=      5-min Rain = 0
KAM1 110845Z 00018KT 05/01 A3001 RMK A01 T00460009  RH  077%=      5-min Rain = 0
KAM1 110846Z 00017KT 05/01 A3001 RMK A01 T00460008  RH  077%=      5-min Rain = 0
KAM1 110847Z 00017G24KT 05/01 A3001 RMK A01 T00460008  RH  077%=      5-min Rain = 0
KAM1 110848Z 00019G25KT 05/01 A3001 RMK A01 T00460008  RH  077%=      5-min Rain = 0
KAM1 110849Z 01019KT 05/01 A3001 RMK A01 T00460008  RH  076%=      5-min Rain = 0
KAM1 110850Z 00018G23KT 05/01 A3001 RMK A01 T00460008  RH  076%=      5-min Rain = 0
KAM1 110851Z 00018KT 05/01 A3001 RMK A01 T00460008  RH  076%=      5-min Rain = 0
KAM1 110852Z 01016KT 05/01 A3002 RMK A01 T00460008  RH  076%=      5-min Rain = 0
KAM1 110853Z 36020G25KT 05/01 A3002 RMK A01 T00460008  RH  076%=      5-min Rain = 0
KAM1 110854Z 01019G25KT 05/01 A3002 RMK A01 T00460008  RH  076%=      5-min Rain = 0
KAM1 110855Z 00022KT 05/01 A3002 RMK A01 T00460008  RH  076%=      5-min Rain = 0
KAM1 110856Z 01017KT 05/01 A3002 RMK A01 T00460008  RH  076%=      5-min Rain = 0
KAM1 110857Z 00019G24KT 05/01 A3002 RMK A01 T00460008  RH  076%=      5-min Rain = 0
KAM1 110858Z 01020KT 05/01 A3002 RMK A01 T00460008  RH  076%=      5-min Rain = 0
KAM1 110859Z 01018G23KT 05/01 A3002 RMK A01 T00470008  RH  076%=      5-min Rain = 0
KAM1 110900Z 00017G22KT 05/01 A3002 RMK A01 T00460008  RH  076%=      5-min Rain = 0
KAM1 110901Z 01020G25KT 05/01 A3003 RMK A01 T00460008  RH  076%=      5-min Rain = 0
KAM1 110902Z 01016G24KT 05/01 A3003 RMK A01 T00460008  RH  076%=      5-min Rain = 0
KAM1 110903Z 00018KT 05/01 A3003 RMK A01 T00460008  RH  076%=      5-min Rain = 0
KAM1 110904Z 00019KT 05/01 A3003 RMK A01 T00460008  RH  076%=      5-min Rain = 0
KAM1 110905Z 00021G27KT 05/01 A3003 RMK A01 T00460008  RH  076%=      5-min Rain = 0
KAM1 110906Z 36022G27KT 05/01 A3003 RMK A01 T00460008  RH  076%=      5-min Rain = 0
KAM1 110907Z 00017KT 05/01 A3003 RMK A01 T00460008  RH  076%=      5-min Rain = 0
KAM1 110908Z 00015KT 05/01 A3003 RMK A01 T00460009  RH  076%=      5-min Rain = 0
KAM1 110909Z 36022KT 05/01 A3003 RMK A01 T00460009  RH  077%=      5-min Rain = 0
KAM1 110910Z 36020KT 05/01 A3003 RMK A01 T00460009  RH  077%=      5-min Rain = 0
KAM1 110911Z 36020G26KT 05/01 A3003 RMK A01 T00460009  RH  077%=      5-min Rain = 0
KAM1 110912Z 00019G24KT 05/01 A3004 RMK A01 T00450008  RH  077%=      5-min Rain = 0
KAM1 110913Z 01016KT 05/01 A3004 RMK A01 T00450008  RH  077%=      5-min Rain = 0
KAM1 110914Z 01019KT 04/01 A3004 RMK A01 T00440008  RH  077%=      5-min Rain = 0
KAM1 110915Z 02017G23KT 04/01 A3004 RMK A01 T00440008  RH  077%=      5-min Rain = 0
KAM1 110916Z 02021G26KT 04/01 A3004 RMK A01 T00440008  RH  077%=      5-min Rain = 0
KAM1 110917Z 02018G23KT 04/01 A3004 RMK A01 T00440009  RH  078%=      5-min Rain = 0
KAM1 110918Z 01017KT 04/01 A3004 RMK A01 T00440009  RH  078%=      5-min Rain = 0
KAM1 110919Z 01019G26KT 04/01 A3004 RMK A01 T00440010  RH  078%=      5-min Rain = 0
KAM1 110920Z 01016G21KT 04/01 A3004 RMK A01 T00440010  RH  079%=      5-min Rain = 0
KAM1 110921Z 01021G28KT 04/01 A3005 RMK A01 T00430009  RH  079%=      5-min Rain = 0
KAM1 110922Z 00024G32KT 04/01 A3005 RMK A01 T00430009  RH  078%=      5-min Rain = 0
KAM1 110923Z 01025G31KT 04/01 A3005 RMK A01 T00410006  RH  078%=      5-min Rain = 0
KAM1 110924Z 01020G26KT 04/01 A3005 RMK A01 T00400005  RH  078%=      5-min Rain = 0
KAM1 110925Z 01024KT 04/01 A3005 RMK A01 T00390005  RH  079%=      5-min Rain = 0
KAM1 110926Z 01020G25KT 04/01 A3006 RMK A01 T00380006  RH  079%=      5-min Rain = 0
KAM1 110927Z 01020G25KT 04/01 A3006 RMK A01 T00380006  RH  080%=      5-min Rain = 0
KAM1 110928Z 01019KT 04/01 A3006 RMK A01 T00370006  RH  080%=      5-min Rain = 0
KAM1 110929Z 01020KT 04/01 A3007 RMK A01 T00370007  RH  081%=      5-min Rain = 0
KAM1 110930Z 01018G24KT 04/01 A3007 RMK A01 T00360008  RH  082%=      5-min Rain = 0
KAM1 110931Z 01017KT 04/01 A3007 RMK A01 T00360008  RH  082%=      5-min Rain = 0
KAM1 110932Z 01015KT 04/01 A3007 RMK A01 T00360008  RH  082%=      5-min Rain = 0
KAM1 110933Z 01023KT 04/01 A3007 RMK A01 T00360008  RH  082%=      5-min Rain = 0
KAM1 110934Z 00023G28KT 04/01 A3007 RMK A01 T00350007  RH  082%=      5-min Rain = 0
KAM1 110935Z 01022KT 04/01 A3008 RMK A01 T00350007  RH  082%=      5-min Rain = 0
KAM1 110936Z 01016KT 03/01 A3008 RMK A01 T00340006  RH  082%=      5-min Rain = 0
KAM1 110937Z 02017G26KT 03/01 A3008 RMK A01 T00340007  RH  082%=      5-min Rain = 0
KAM1 110938Z 02021KT 03/01 A3008 RMK A01 T00330007  RH  083%=      5-min Rain = 0
KAM1 110939Z 01021KT 03/01 A3008 RMK A01 T00320007  RH  084%=      5-min Rain = 0
KAM1 110940Z 02019G24KT 03/01 A3008 RMK A01 T00310008  RH  085%=      5-min Rain = 0
KAM1 110941Z 02017KT 03/01 A3008 RMK A01 T00310008  RH  085%=      5-min Rain = 0
KAM1 110942Z 01017G23KT 03/01 A3008 RMK A01 T00300007  RH  085%=      5-min Rain = 0
KAM1 110943Z 01022G27KT 03/01 A3008 RMK A01 T00300007  RH  085%=      5-min Rain = 0
KAM1 110944Z 36024KT 03/00 A3008 RMK A01 T00300004  RH  083%=      5-min Rain = 0
KAM1 110945Z 00020G25KT 03/00 A3008 RMK A01 T00290002  RH  083%=      5-min Rain = 0
KAM1 110946Z 00018KT 03/00 A3008 RMK A01 T00270001  RH  083%=      5-min Rain = 0
KAM1 110947Z 00019G26KT 03/00 A3008 RMK A01 T00270001  RH  083%=      5-min Rain = 0
KAM1 110948Z 00026G32KT 03/00 A3008 RMK A01 T00260001  RH  083%=      5-min Rain = 0
KAM1 110949Z 36028G33KT 03/00 A3008 RMK A01 T002500-0  RH  083%=      5-min Rain = 0
KAM1 110950Z 01025G30KT 02/00 A3008 RMK A01 T002300-0  RH  084%=      5-min Rain = 0
KAM1 110951Z 01024G33KT 02/00 A3009 RMK A01 T00220001  RH  086%=      5-min Rain = 0
KAM1 110952Z 01022G27KT 02/00 A3009 RMK A01 T00210002  RH  087%=      5-min Rain = 0
KAM1 110953Z 02020KT 02/00 A3009 RMK A01 T00210003  RH  088%=      5-min Rain = 0
KAM1 110954Z 01026G31KT 02/00 A3009 RMK A01 T00200003  RH  089%=      5-min Rain = 0
KAM1 110955Z 01023G28KT 02/00 A3009 RMK A01 T00200004  RH  089%=      5-min Rain = 0
KAM1 110956Z 01026G31KT 02/00 A3009 RMK A01 T00190004  RH  089%=      5-min Rain = 0
KAM1 110957Z 00029G37KT 02/00 A3009 RMK A01 T00190003  RH  089%=      5-min Rain = 0
KAM1 110958Z 00028KT 02/00 A3009 RMK A01 T00180002  RH  089%=      5-min Rain = 0
KAM1 110959Z 01028G35KT 02/00 A3009 RMK A01 T00170002  RH  090%=      5-min Rain = 0
KAM1 111000Z 01024G29KT 02/00 A3009 RMK A01 T00160001  RH  090%=      5-min Rain = 0
KAM1 111001Z 01018G23KT 02/00 A3009 RMK A01 T00160002  RH  091%=      5-min Rain = 0
KAM1 111002Z 01022G31KT 02/00 A301 RMK A01 T00160002  RH  091%=      5-min Rain = 0
KAM1 111003Z 01023G30KT 02/00 A301 RMK A01 T00160002  RH  091%=      5-min Rain = 0
KAM1 111004Z 01023G28KT 02/00 A301 RMK A01 T00160002  RH  090%=      5-min Rain = 0
KAM1 111005Z 00021KT 02/00 A301 RMK A01 T00150001  RH  090%=      5-min Rain = 0
KAM1 111006Z 01022KT 02/00 A301 RMK A01 T00150001  RH  090%=      5-min Rain = 0
KAM1 111007Z 01024G31KT 02/00 A301 RMK A01 T00150001  RH  090%=      5-min Rain = 0
KAM1 111008Z 01025G30KT 02/00 A3011 RMK A01 T00150001  RH  090%=      5-min Rain = 0
KAM1 111009Z 01024G29KT 01/00 A3011 RMK A01 T00140000  RH  091%=      5-min Rain = 0
KAM1 111010Z 00023G32KT 01/00 A3011 RMK A01 T00130001  RH  091%=      5-min Rain = 0
KAM1 111011Z 36024G30KT 01/00 A3011 RMK A01 T00130001  RH  092%=      5-min Rain = 0
KAM1 111012Z 01025G32KT 01/00 A3011 RMK A01 T00130001  RH  092%=      5-min Rain = 0
KAM1 111013Z 36026G31KT 01/00 A3011 RMK A01 T00130000  RH  091%=      5-min Rain = 0
KAM1 111014Z 00026G33KT 01/00 A3011 RMK A01 T001200-0  RH  092%=      5-min Rain = 0
KAM1 111015Z 00027G34KT 01/M00 A3011 RMK A01 T00111001  RH  091%=      5-min Rain = 0
KAM1 111016Z 36025KT 01/M00 A3011 RMK A01 T00111002  RH  091%=      5-min Rain = 0
KAM1 111017Z 00024G29KT 01/M00 A3012 RMK A01 T00101002  RH  092%=      5-min Rain = 0
KAM1 111018Z 00021G27KT 01/M00 A3012 RMK A01 T00101001  RH  092%=      5-min Rain = 0
KAM1 111019Z 36027G34KT 01/M00 A3012 RMK A01 T00091002  RH  092%=      5-min Rain = 0
KAM1 111020Z 36026KT 01/M00 A3012 RMK A01 T00081003  RH  092%=      5-min Rain = 0
KAM1 111021Z 35025G32KT 01/M00 A3013 RMK A01 T00061004  RH  093%=      5-min Rain = 0
KAM1 111022Z 35026G31KT 01/M00 A3013 RMK A01 T00051003  RH  094%=      5-min Rain = 0
KAM1 111023Z 35025G30KT 01/M00 A3013 RMK A01 T00051002  RH  095%=      5-min Rain = 0
KAM1 111024Z 36025KT 00/M00 A3013 RMK A01 T00041001  RH  096%=      5-min Rain = 0
KAM1 111025Z 35029KT 00/M00 A3013 RMK A01 T00041001  RH  097%=      5-min Rain = 0
KAM1 111026Z 01024G29KT 00/M00 A3013 RMK A01 T00031001  RH  097%=      5-min Rain = 0
KAM1 111027Z 36027G36KT 00/M00 A3014 RMK A01 T00021002  RH  097%=      5-min Rain = 0
KAM1 111028Z 00028G37KT 00/M00 A3014 RMK A01 T00011004  RH  096%=      5-min Rain = 0
KAM1 111029Z 01027G32KT 00/01 A3014 RMK A01 T00-000-6  RH  096%=      5-min Rain = 0
KAM1 111030Z 01030G35KT M00/M01 A3014 RMK A01 T10011006  RH  097%=      5-min Rain = 0
KAM1 111031Z 01026KT M00/M01 A3014 RMK A01 T10021006  RH  098%=      5-min Rain = 0
KAM1 111032Z 02027KT M00/M01 A3014 RMK A01 T10031005  RH  098%=      5-min Rain = 0
KAM1 111033Z 01025KT M00/M01 A3014 RMK A01 T10031005  RH  099%=      5-min Rain = 0
KAM1 111034Z 01023KT M00/M00 A3015 RMK A01 T10041004  RH  100%=      5-min Rain = 0
KAM1 111035Z 01026G33KT M00/M00 A3015 RMK A01 T10041004  RH  100%=      5-min Rain = 0
KAM1 111036Z 00026KT M00/M00 A3015 RMK A01 T10041004  RH  100%=      5-min Rain = 0
KAM1 111037Z 01024G29KT M00/M00 A3015 RMK A01 T10041004  RH  100%=      5-min Rain = 0
KAM1 111038Z 01025KT M00/M00 A3015 RMK A01 T10041004  RH  100%=      5-min Rain = 0
KAM1 111039Z 01026G31KT M00/M00 A3015 RMK A01 T10041004  RH  100%=      5-min Rain = 0
KAM1 111040Z 01025G30KT M00/M01 A3015 RMK A01 T10041005  RH  100%=      5-min Rain = 0
KAM1 111041Z 01023KT M01/M01 A3015 RMK A01 T10051005  RH  100%=      5-min Rain = 0
KAM1 111042Z 01021G26KT M01/M01 A3015 RMK A01 T10051005  RH  100%=      5-min Rain = 0
KAM1 111043Z 01019G24KT M01/M01 A3015 RMK A01 T10051005  RH  100%=      5-min Rain = 0
KAM1 111044Z 01019G24KT M01/M01 A3015 RMK A01 T10051005  RH  100%=      5-min Rain = 0
KAM1 111045Z 00022KT M01/M01 A3015 RMK A01 T10051005  RH  100%=      5-min Rain = 0
KAM1 111046Z 00023G28KT M01/M01 A3015 RMK A01 T10051005  RH  100%=      5-min Rain = 0
KAM1 111047Z 00020G25KT M01/M01 A3015 RMK A01 T10061006  RH  100%=      5-min Rain = 0
KAM1 111048Z 00020KT M01/M01 A3015 RMK A01 T10061006  RH  100%=      5-min Rain = 0
KAM1 111049Z 01019KT M01/M01 A3016 RMK A01 T10061006  RH  100%=      5-min Rain = 0
KAM1 111050Z 00016KT M01/M01 A3016 RMK A01 T10071007  RH  100%=      5-min Rain = 0
KAM1 111051Z 36018KT M01/M01 A3016 RMK A01 T10071007  RH  100%=      5-min Rain = 0
KAM1 111052Z 36019G24KT M01/M01 A3016 RMK A01 T10071007  RH  100%=      5-min Rain = 0
KAM1 111053Z 36021G27KT M01/M01 A3016 RMK A01 T10081008  RH  100%=      5-min Rain = 0
KAM1 111054Z 36023G28KT M01/M01 A3016 RMK A01 T10091009  RH  100%=      5-min Rain = 0
KAM1 111055Z 00019G24KT M01/M01 A3016 RMK A01 T10101010  RH  100%=      5-min Rain = 0
KAM1 111056Z 01017G23KT M01/M01 A3017 RMK A01 T10101010  RH  100%=      5-min Rain = 0
KAM1 111057Z 01021G27KT M01/M01 A3017 RMK A01 T10101011  RH  100%=      5-min Rain = 0
KAM1 111058Z 01020KT M01/M01 A3017 RMK A01 T10121012  RH  100%=      5-min Rain = 0
KAM1 111059Z 01022G29KT M01/M01 A3017 RMK A01 T10121012  RH  100%=      5-min Rain = 0
KAM1 111100Z 01019G24KT M01/M01 A3017 RMK A01 T10131014  RH  100%=      5-min Rain = 0
KAM1 111101Z 01020KT M01/M01 A3017 RMK A01 T10141014  RH  100%=      5-min Rain = 0
KAM1 111102Z 01023G30KT M02/M02 A3018 RMK A01 T10151015  RH  100%=      5-min Rain = 0
KAM1 111103Z 01020G25KT M02/M02 A3018 RMK A01 T10151016  RH  100%=      5-min Rain = 0
KAM1 111104Z 02020G25KT M02/M02 A3018 RMK A01 T10151016  RH  100%=      5-min Rain = 0
KAM1 111105Z 01018G25KT M02/M02 A3018 RMK A01 T10161016  RH  100%=      5-min Rain = 0
KAM1 111106Z 01020G25KT M02/M02 A3018 RMK A01 T10161016  RH  100%=      5-min Rain = 0
KAM1 111107Z 01021G26KT M02/M02 A3018 RMK A01 T10161016  RH  100%=      5-min Rain = 0
KAM1 111108Z 01022G27KT M02/M02 A3018 RMK A01 T10161016  RH  100%=      5-min Rain = 0
KAM1 111109Z 01021KT M02/M02 A3018 RMK A01 T10161017  RH  100%=      5-min Rain = 0
KAM1 111110Z 01022KT M02/M02 A3019 RMK A01 T10171017  RH  100%=      5-min Rain = 0
KAM1 111111Z 01018KT M02/M02 A3019 RMK A01 T10171017  RH  100%=      5-min Rain = 0
KAM1 111112Z 01020KT M02/M02 A3019 RMK A01 T10171017  RH  100%=      5-min Rain = 0
KAM1 111113Z 01020KT M02/M02 A3019 RMK A01 T10161017  RH  100%=      5-min Rain = 0
KAM1 111114Z 01017KT M02/M02 A3019 RMK A01 T10161017  RH  100%=      5-min Rain = 0
KAM1 111115Z 01015KT M02/M02 A3019 RMK A01 T10161017  RH  100%=      5-min Rain = 0
KAM1 111116Z 01017G23KT M02/M02 A3019 RMK A01 T10161017  RH  100%=      5-min Rain = 0
KAM1 111117Z 01019KT M02/M02 A3019 RMK A01 T10161017  RH  100%=      5-min Rain = 0
KAM1 111118Z 01017G22KT M02/M02 A3019 RMK A01 T10171017  RH  100%=      5-min Rain = 0
KAM1 111119Z 01019G24KT M02/M02 A3019 RMK A01 T10171017  RH  100%=      5-min Rain = 0
KAM1 111120Z 01020KT M02/M02 A3019 RMK A01 T10171017  RH  100%=      5-min Rain = 0
KAM1 111121Z 01015KT M02/M02 A3019 RMK A01 T10171017  RH  100%=      5-min Rain = 0
KAM1 111122Z 01014G19KT M02/M02 A3019 RMK A01 T10171017  RH  100%=      5-min Rain = 0
KAM1 111123Z 01014KT M02/M02 A3019 RMK A01 T10171017  RH  100%=      5-min Rain = 0
KAM1 111124Z 01014KT M02/M02 A3019 RMK A01 T10171017  RH  100%=      5-min Rain = 0
KAM1 111125Z 01016KT M02/M02 A3019 RMK A01 T10171017  RH  100%=      5-min Rain = 0
KAM1 111126Z 00012KT M02/M02 A302 RMK A01 T10171017  RH  100%=      5-min Rain = 0
KAM1 111127Z 01013KT M02/M02 A302 RMK A01 T10171017  RH  100%=      5-min Rain = 0
KAM1 111128Z 01012KT M02/M02 A302 RMK A01 T10171017  RH  100%=      5-min Rain = 0
KAM1 111129Z 01010KT M02/M02 A302 RMK A01 T10171017  RH  100%=      5-min Rain = 0
KAM1 111130Z 02011KT M02/M02 A302 RMK A01 T10171017  RH  100%=      5-min Rain = 0
KAM1 111131Z 01015G21KT M02/M02 A302 RMK A01 T10171017  RH  100%=      5-min Rain = 0
KAM1 111132Z 01016G21KT M02/M02 A302 RMK A01 T10171018  RH  100%=      5-min Rain = 0
KAM1 111133Z 01017KT M02/M02 A302 RMK A01 T10181018  RH  100%=      5-min Rain = 0
KAM1 111134Z 01016KT M02/M02 A302 RMK A01 T10191019  RH  100%=      5-min Rain = 0
KAM1 111135Z 02016KT M02/M02 A3021 RMK A01 T10191019  RH  100%=      5-min Rain = 0
KAM1 111136Z 01015KT M02/M02 A3021 RMK A01 T10191019  RH  100%=      5-min Rain = 0
KAM1 111137Z 02017G22KT M02/M02 A3021 RMK A01 T10191019  RH  100%=      5-min Rain = 0
KAM1 111138Z 01017KT M02/M02 A3021 RMK A01 T10191020  RH  100%=      5-min Rain = 0
KAM1 111139Z 01017KT M02/M02 A3021 RMK A01 T10201020  RH  100%=      5-min Rain = 0
KAM1 111140Z 02015G20KT M02/M02 A3021 RMK A01 T10201020  RH  100%=      5-min Rain = 0
KAM1 111141Z 02016G21KT M02/M02 A3021 RMK A01 T10201021  RH  100%=      5-min Rain = 0
KAM1 111142Z 02017KT M02/M02 A3021 RMK A01 T10201021  RH  099%=      5-min Rain = 0
KAM1 111143Z 01017KT M02/M02 A3021 RMK A01 T10211021  RH  100%=      5-min Rain = 0
KAM1 111144Z 02013KT M02/M02 A3021 RMK A01 T10201021  RH  100%=      5-min Rain = 0
KAM1 111145Z 01014KT M02/M02 A3021 RMK A01 T10211021  RH  100%=      5-min Rain = 0
KAM1 111146Z 02012KT M02/M02 A3021 RMK A01 T10211021  RH  100%=      5-min Rain = 0
KAM1 111147Z 01011KT M02/M02 A3021 RMK A01 T10211021  RH  100%=      5-min Rain = 0
KAM1 111148Z 01013KT M02/M02 A3021 RMK A01 T10211021  RH  100%=      5-min Rain = 0
KAM1 111149Z 01013G18KT M02/M02 A3021 RMK A01 T10211021  RH  100%=      5-min Rain = 0
KAM1 111150Z 01012KT M02/M02 A3021 RMK A01 T10211021  RH  100%=      5-min Rain = 0
KAM1 111151Z 01016KT M02/M02 A3021 RMK A01 T10211021  RH  100%=      5-min Rain = 0
KAM1 111152Z 01016KT M02/M02 A3021 RMK A01 T10211021  RH  100%=      5-min Rain = 0
KAM1 111153Z 01014KT M02/M02 A3021 RMK A01 T10211021  RH  100%=      5-min Rain = 0
KAM1 111154Z 01014KT M02/M02 A3021 RMK A01 T10211021  RH  100%=      5-min Rain = 0
KAM1 111155Z 01014KT M02/M02 A3021 RMK A01 T10211021  RH  100%=      5-min Rain = 0
KAM1 111156Z 01013KT M02/M02 A3021 RMK A01 T10211021  RH  100%=      5-min Rain = 0
KAM1 111157Z 01010KT M02/M02 A3021 RMK A01 T10201021  RH  100%=      5-min Rain = 0
KAM1 111158Z 00014KT M02/M02 A3021 RMK A01 T10211021  RH  100%=      5-min Rain = 0
KAM1 111159Z 01014KT M02/M02 A3021 RMK A01 T10211021  RH  100%=      5-min Rain = 0
KAM1 111200Z 01011KT M02/M02 A3021 RMK A01 T10211021  RH  100%=      5-min Rain = 0
KAM1 111201Z 01015KT M02/M02 A3021 RMK A01 T10211021  RH  100%=      5-min Rain = 0
KAM1 111202Z 01017G22KT M02/M02 A3022 RMK A01 T10211021  RH  100%=      5-min Rain = 0
KAM1 111203Z 02015KT M02/M02 A3022 RMK A01 T10211021  RH  100%=      5-min Rain = 0
KAM1 111204Z 02017KT M02/M02 A3022 RMK A01 T10211022  RH  100%=      5-min Rain = 0
KAM1 111205Z 02014KT M02/M02 A3022 RMK A01 T10221022  RH  100%=      5-min Rain = 0
KAM1 111206Z 01014G19KT M02/M02 A3022 RMK A01 T10221022  RH  100%=      5-min Rain = 0
KAM1 111207Z 01015KT M02/M02 A3022 RMK A01 T10221022  RH  100%=      5-min Rain = 0
KAM1 111208Z 01016G21KT M02/M02 A3022 RMK A01 T10221023  RH  100%=      5-min Rain = 0
KAM1 111209Z 01015G21KT M02/M02 A3023 RMK A01 T10231023  RH  100%=      5-min Rain = 0
KAM1 111210Z 01016KT M02/M02 A3023 RMK A01 T10231023  RH  100%=      5-min Rain = 0
KAM1 111211Z 01015KT M02/M02 A3023 RMK A01 T10241024  RH  100%=      5-min Rain = 0
KAM1 111212Z 01016KT M02/M02 A3023 RMK A01 T10241024  RH  100%=      5-min Rain = 0
KAM1 111213Z 01014KT M02/M02 A3023 RMK A01 T10241024  RH  100%=      5-min Rain = 0
KAM1 111214Z 01015KT M02/M02 A3023 RMK A01 T10241024  RH  100%=      5-min Rain = 0
KAM1 111215Z 01017KT M02/M03 A3023 RMK A01 T10241025  RH  100%=      5-min Rain = 0
KAM1 111216Z 02015KT M03/M03 A3024 RMK A01 T10251025  RH  100%=      5-min Rain = 0
KAM1 111217Z 02014KT M03/M03 A3024 RMK A01 T10251025  RH  100%=      5-min Rain = 0
KAM1 111218Z 02014KT M03/M03 A3024 RMK A01 T10251025  RH  100%=      5-min Rain = 0
KAM1 111219Z 01015KT M03/M03 A3024 RMK A01 T10251026  RH  100%=      5-min Rain = 0
KAM1 111220Z 01016KT M03/M03 A3024 RMK A01 T10261026  RH  100%=      5-min Rain = 0
KAM1 111221Z 01015KT M03/M03 A3024 RMK A01 T10271027  RH  100%=      5-min Rain = 0
KAM1 111222Z 00014KT M03/M03 A3025 RMK A01 T10271028  RH  100%=      5-min Rain = 0
KAM1 111223Z 01015KT M03/M03 A3025 RMK A01 T10281028  RH  100%=      5-min Rain = 0
KAM1 111224Z 00016KT M03/M03 A3025 RMK A01 T10281029  RH  100%=      5-min Rain = 0
KAM1 111225Z 01016KT M03/M03 A3025 RMK A01 T10291029  RH  100%=      5-min Rain = 0
KAM1 111226Z 02012KT M03/M03 A3025 RMK A01 T10301030  RH  100%=      5-min Rain = 0
KAM1 111227Z 02014KT M03/M03 A3025 RMK A01 T10301030  RH  100%=      5-min Rain = 0
KAM1 111228Z 02013KT M03/M03 A3025 RMK A01 T10311031  RH  100%=      5-min Rain = 0
KAM1 111229Z 01013KT M03/M03 A3025 RMK A01 T10321032  RH  100%=      5-min Rain = 0
KAM1 111230Z 01011KT M03/M03 A3025 RMK A01 T10311032  RH  100%=      5-min Rain = 0
KAM1 111231Z 01015G20KT M03/M03 A3026 RMK A01 T10321032  RH  100%=      5-min Rain = 0
KAM1 111232Z 01016KT M03/M03 A3026 RMK A01 T10311031  RH  100%=      5-min Rain = 0
KAM1 111233Z 01017KT M03/M03 A3026 RMK A01 T10321032  RH  100%=      5-min Rain = 0
KAM1 111234Z 01017KT M03/M03 A3026 RMK A01 T10321032  RH  100%=      5-min Rain = 0
KAM1 111235Z 01019KT M03/M03 A3026 RMK A01 T10321033  RH  100%=      5-min Rain = 0
KAM1 111236Z 01016KT M03/M03 A3026 RMK A01 T10331034  RH  100%=      5-min Rain = 0
KAM1 111237Z 02016KT M03/M03 A3026 RMK A01 T10331034  RH  099%=      5-min Rain = 0
KAM1 111238Z 01015G22KT M03/M03 A3026 RMK A01 T10331034  RH  099%=      5-min Rain = 0
KAM1 111239Z 02017KT M03/M04 A3027 RMK A01 T10341035  RH  099%=      5-min Rain = 0
KAM1 111240Z 01016KT M04/M04 A3027 RMK A01 T10351036  RH  099%=      5-min Rain = 0
KAM1 111241Z 01016KT M04/M04 A3027 RMK A01 T10351036  RH  099%=      5-min Rain = 0
KAM1 111242Z 02016KT M04/M04 A3027 RMK A01 T10351036  RH  099%=      5-min Rain = 0
KAM1 111243Z 02015G20KT M04/M04 A3027 RMK A01 T10351037  RH  099%=      5-min Rain = 0
KAM1 111244Z 01016KT M04/M04 A3027 RMK A01 T10351037  RH  098%=      5-min Rain = 0
KAM1 111245Z 02016KT M04/M04 A3028 RMK A01 T10351038  RH  098%=      5-min Rain = 0
KAM1 111246Z 01017KT M04/M04 A3028 RMK A01 T10361038  RH  098%=      5-min Rain = 0
KAM1 111247Z 02014KT M04/M04 A3028 RMK A01 T10361039  RH  098%=      5-min Rain = 0
KAM1 111248Z 02014KT M04/M04 A3028 RMK A01 T10361038  RH  098%=      5-min Rain = 0
KAM1 111249Z 02016KT M04/M04 A3028 RMK A01 T10361038  RH  099%=      5-min Rain = 0
KAM1 111250Z 02013KT M04/M04 A3028 RMK A01 T10361038  RH  099%=      5-min Rain = 0
KAM1 111251Z 02013KT M04/M04 A3029 RMK A01 T10361037  RH  099%=      5-min Rain = 0
KAM1 111252Z 01012KT M04/M04 A3029 RMK A01 T10361037  RH  100%=      5-min Rain = 0
KAM1 111253Z 02011KT M04/M04 A3029 RMK A01 T10361036  RH  100%=      5-min Rain = 0
KAM1 111254Z 01013KT M04/M04 A3029 RMK A01 T10361036  RH  100%=      5-min Rain = 0
KAM1 111255Z 01011KT M04/M04 A3029 RMK A01 T10361036  RH  100%=      5-min Rain = 0
KAM1 111256Z 00011KT M04/M04 A3029 RMK A01 T10361036  RH  100%=      5-min Rain = 0
KAM1 111257Z 00010KT M04/M04 A3029 RMK A01 T10351036  RH  100%=      5-min Rain = 0
KAM1 111258Z 01015KT M04/M04 A3029 RMK A01 T10361036  RH  100%=      5-min Rain = 0
KAM1 111259Z 00014KT M04/M04 A3029 RMK A01 T10361037  RH  099%=      5-min Rain = 0
KAM1 111300Z 01017KT M04/M04 A3029 RMK A01 T10371039  RH  099%=      5-min Rain = 0
KAM1 111301Z 00013KT M04/M04 A3029 RMK A01 T10371040  RH  098%=      5-min Rain = 0
KAM1 111302Z 01012G17KT M04/M04 A3029 RMK A01 T10371040  RH  098%=      5-min Rain = 0
KAM1 111303Z 01014KT M04/M04 A3029 RMK A01 T10371040  RH  098%=      5-min Rain = 0
KAM1 111304Z 01013KT M04/M04 A3029 RMK A01 T10381041  RH  098%=      5-min Rain = 0
KAM1 111305Z 01015KT M04/M04 A303 RMK A01 T10381040  RH  098%=      5-min Rain = 0
KAM1 111306Z 02014G20KT M04/M04 A303 RMK A01 T10381042  RH  098%=      5-min Rain = 0
KAM1 111307Z 02016KT M04/M04 A303 RMK A01 T10391044  RH  097%=      5-min Rain = 0
KAM1 111308Z 02016G21KT M04/M04 A303 RMK A01 T10401044  RH  097%=      5-min Rain = 0
KAM1 111309Z 02017KT M04/M05 A303 RMK A01 T10401045  RH  096%=      5-min Rain = 0
KAM1 111310Z 02018KT M04/M05 A303 RMK A01 T10411046  RH  096%=      5-min Rain = 0
KAM1 111311Z 02016KT M04/M05 A303 RMK A01 T10411046  RH  096%=      5-min Rain = 0
KAM1 111312Z 02015KT M04/M05 A303 RMK A01 T10411046  RH  096%=      5-min Rain = 0
KAM1 111313Z 02014KT M04/M05 A303 RMK A01 T10411045  RH  097%=      5-min Rain = 0
KAM1 111314Z 02015KT M04/M05 A303 RMK A01 T10411045  RH  097%=      5-min Rain = 0
KAM1 111315Z 02013KT M04/M04 A303 RMK A01 T10411044  RH  097%=      5-min Rain = 0
KAM1 111316Z 02013KT M04/M04 A303 RMK A01 T10401044  RH  098%=      5-min Rain = 0
KAM1 111317Z 02014KT M04/M04 A303 RMK A01 T10411043  RH  098%=      5-min Rain = 0
KAM1 111318Z 02012KT M04/M04 A3031 RMK A01 T10411043  RH  098%=      5-min Rain = 0
KAM1 111319Z 02012KT M04/M04 A3031 RMK A01 T10411043  RH  099%=      5-min Rain = 0
KAM1 111320Z 01013KT M04/M04 A3031 RMK A01 T10401042  RH  099%=      5-min Rain = 0
KAM1 111321Z 01012KT M04/M04 A3031 RMK A01 T10411042  RH  099%=      5-min Rain = 0
KAM1 111322Z 01011KT M04/M04 A3031 RMK A01 T10401041  RH  100%=      5-min Rain = 0
KAM1 111323Z 01011KT M04/M04 A3031 RMK A01 T10401040  RH  100%=      5-min Rain = 0
KAM1 111324Z 01014KT M04/M04 A3032 RMK A01 T10401040  RH  100%=      5-min Rain = 0
KAM1 111325Z 01013KT M04/M04 A3032 RMK A01 T10401040  RH  100%=      5-min Rain = 0
KAM1 111326Z 01014KT M04/M04 A3032 RMK A01 T10401040  RH  100%=      5-min Rain = 0
KAM1 111327Z 01014KT M04/M04 A3032 RMK A01 T10401041  RH  099%=      5-min Rain = 0
KAM1 111328Z 01011KT M04/M04 A3032 RMK A01 T10401043  RH  098%=      5-min Rain = 0
KAM1 111329Z 01014KT M04/M04 A3032 RMK A01 T10401044  RH  097%=      5-min Rain = 0
KAM1 111330Z 01016KT M04/M05 A3033 RMK A01 T10411047  RH  096%=      5-min Rain = 0
KAM1 111331Z 01014KT M04/M05 A3033 RMK A01 T10421049  RH  095%=      5-min Rain = 0
KAM1 111332Z 01013KT M04/M05 A3033 RMK A01 T10431050  RH  095%=      5-min Rain = 0
KAM1 111333Z 02012G17KT M04/M05 A3033 RMK A01 T10431050  RH  095%=      5-min Rain = 0
KAM1 111334Z 01013KT M04/M05 A3033 RMK A01 T10431049  RH  096%=      5-min Rain = 0
KAM1 111335Z 01013KT M04/M05 A3033 RMK A01 T10441049  RH  096%=      5-min Rain = 0
KAM1 111336Z 01012G17KT M04/M05 A3033 RMK A01 T10441048  RH  097%=      5-min Rain = 0
KAM1 111337Z 01014KT M04/M05 A3034 RMK A01 T10441048  RH  097%=      5-min Rain = 0
KAM1 111338Z 01014KT M05/M05 A3034 RMK A01 T10451049  RH  097%=      5-min Rain = 0
KAM1 111339Z 01014KT M05/M05 A3034 RMK A01 T10451049  RH  097%=      5-min Rain = 0
KAM1 111340Z 01015KT M05/M05 A3033 RMK A01 T10451049  RH  097%=      5-min Rain = 0
KAM1 111341Z 01015KT M05/M05 A3034 RMK A01 T10451049  RH  097%=      5-min Rain = 0
KAM1 111342Z 01017KT M05/M05 A3034 RMK A01 T10461051  RH  096%=      5-min Rain = 0
KAM1 111343Z 02018KT M05/M05 A3034 RMK A01 T10471054  RH  095%=      5-min Rain = 0
KAM1 111344Z 02016KT M05/M06 A3034 RMK A01 T10471057  RH  093%=      5-min Rain = 0
KAM1 111345Z 02013G18KT M05/M06 A3034 RMK A01 T10481058  RH  093%=      5-min Rain = 0
KAM1 111346Z 02016G21KT M05/M06 A3034 RMK A01 T10481058  RH  093%=      5-min Rain = 0
KAM1 111347Z 01016KT M05/M06 A3034 RMK A01 T10491058  RH  093%=      5-min Rain = 0
KAM1 111348Z 02016KT M05/M06 A3034 RMK A01 T10491058  RH  093%=      5-min Rain = 0
KAM1 111349Z 02017KT M05/M06 A3034 RMK A01 T10491058  RH  093%=      5-min Rain = 0
KAM1 111350Z 02016KT M05/M06 A3034 RMK A01 T10501058  RH  094%=      5-min Rain = 0
KAM1 111351Z 02015KT M05/M06 A3034 RMK A01 T10501058  RH  094%=      5-min Rain = 0
KAM1 111352Z 01014KT M05/M06 A3034 RMK A01 T10501057  RH  095%=      5-min Rain = 0
KAM1 111353Z 01014KT M05/M06 A3034 RMK A01 T10501056  RH  095%=      5-min Rain = 0
KAM1 111354Z 01014KT M05/M06 A3034 RMK A01 T10501056  RH  096%=      5-min Rain = 0
KAM1 111355Z 01013KT M05/M06 A3034 RMK A01 T10501055  RH  096%=      5-min Rain = 0
KAM1 111356Z 01016KT M05/M05 A3034 RMK A01 T10491054  RH  097%=      5-min Rain = 0
KAM1 111357Z 00014KT M05/M05 A3035 RMK A01 T10491053  RH  097%=      5-min Rain = 0
KAM1 111358Z 00015KT M05/M05 A3034 RMK A01 T10491054  RH  096%=      5-min Rain = 0
KAM1 111359Z 01014G19KT M05/M06 A3035 RMK A01 T10491056  RH  095%=      5-min Rain = 0
KAM1 111400Z 00017KT M05/M06 A3035 RMK A01 T10491058  RH  094%=      5-min Rain = 0
KAM1 111401Z 01014KT M05/M06 A3034 RMK A01 T10501059  RH  093%=      5-min Rain = 0
KAM1 111402Z 01013KT M05/M06 A3035 RMK A01 T10511060  RH  094%=      5-min Rain = 0
KAM1 111403Z 00015KT M05/M06 A3035 RMK A01 T10511060  RH  094%=      5-min Rain = 0
KAM1 111404Z 00014KT M05/M06 A3035 RMK A01 T10521060  RH  094%=      5-min Rain = 0
KAM1 111405Z 36016KT M05/M06 A3035 RMK A01 T10531060  RH  094%=      5-min Rain = 0
KAM1 111406Z 00015KT M05/M06 A3035 RMK A01 T10541061  RH  094%=      5-min Rain = 0
KAM1 111407Z 00015KT M05/M06 A3035 RMK A01 T10541061  RH  095%=      5-min Rain = 0
KAM1 111408Z 01016KT M05/M06 A3036 RMK A01 T10541060  RH  095%=      5-min Rain = 0
KAM1 111409Z 01015KT M05/M06 A3036 RMK A01 T10541061  RH  095%=      5-min Rain = 0
KAM1 111410Z 01015KT M05/M06 A3036 RMK A01 T10541061  RH  095%=      5-min Rain = 0
KAM1 111411Z 02016KT M05/M06 A3036 RMK A01 T10541060  RH  096%=      5-min Rain = 0
KAM1 111412Z 02017KT M06/M06 A3036 RMK A01 T10551062  RH  095%=      5-min Rain = 0
KAM1 111413Z 01016KT M06/M07 A3036 RMK A01 T10551065  RH  093%=      5-min Rain = 0
KAM1 111414Z 02018KT M06/M07 A3036 RMK A01 T10561066  RH  092%=      5-min Rain = 0
KAM1 111415Z 02016KT M06/M07 A3037 RMK A01 T10561068  RH  092%=      5-min Rain = 0
KAM1 111416Z 01015KT M06/M07 A3036 RMK A01 T10571069  RH  091%=      5-min Rain = 0
KAM1 111417Z 01016KT M06/M07 A3037 RMK A01 T10571068  RH  092%=      5-min Rain = 0
KAM1 111418Z 02017KT M06/M07 A3037 RMK A01 T10571068  RH  092%=      5-min Rain = 0
KAM1 111419Z 02017KT M06/M07 A3037 RMK A01 T10571069  RH  092%=      5-min Rain = 0
KAM1 111420Z 02016G21KT M06/M07 A3037 RMK A01 T10571069  RH  091%=      5-min Rain = 0
KAM1 111421Z 01015KT M06/M07 A3037 RMK A01 T10571069  RH  092%=      5-min Rain = 0
KAM1 111422Z 02015KT M06/M07 A3037 RMK A01 T10571068  RH  092%=      5-min Rain = 0
KAM1 111423Z 02016KT M06/M07 A3037 RMK A01 T10571067  RH  093%=      5-min Rain = 0
KAM1 111424Z 01016KT M06/M07 A3037 RMK A01 T10581068  RH  093%=      5-min Rain = 0
KAM1 111425Z 01016G21KT M06/M07 A3037 RMK A01 T10581067  RH  093%=      5-min Rain = 0
KAM1 111426Z 02015KT M06/M07 A3037 RMK A01 T10571067  RH  093%=      5-min Rain = 0
KAM1 111427Z 02011KT M06/M07 A3037 RMK A01 T10571066  RH  094%=      5-min Rain = 0
KAM1 111428Z 01015KT M06/M07 A3037 RMK A01 T10571065  RH  094%=      5-min Rain = 0
KAM1 111429Z 01016KT M06/M07 A3037 RMK A01 T10571065  RH  094%=      5-min Rain = 0
KAM1 111430Z 01013KT M06/M06 A3037 RMK A01 T10571064  RH  094%=      5-min Rain = 0
KAM1 111431Z 01012KT M06/M06 A3037 RMK A01 T10561063  RH  095%=      5-min Rain = 0
KAM1 111432Z 01013KT M06/M06 A3037 RMK A01 T10561062  RH  095%=      5-min Rain = 0
KAM1 111433Z 01011KT M06/M06 A3037 RMK A01 T10561062  RH  095%=      5-min Rain = 0
KAM1 111434Z 01013KT M06/M06 A3037 RMK A01 T10561061  RH  096%=      5-min Rain = 0
KAM1 111435Z 01015KT M06/M06 A3037 RMK A01 T10551061  RH  096%=      5-min Rain = 0
KAM1 111436Z 01016KT M06/M06 A3037 RMK A01 T10551062  RH  095%=      5-min Rain = 0
KAM1 111437Z 01015KT M06/M06 A3037 RMK A01 T10551062  RH  095%=      5-min Rain = 0
KAM1 111438Z 00014KT M06/M06 A3037 RMK A01 T10551062  RH  095%=      5-min Rain = 0
KAM1 111439Z 00013KT M06/M06 A3037 RMK A01 T10551061  RH  095%=      5-min Rain = 0
KAM1 111440Z 01012KT M06/M06 A3038 RMK A01 T10551061  RH  096%=      5-min Rain = 0
KAM1 111441Z 01012G17KT M06/M06 A3038 RMK A01 T10551061  RH  096%=      5-min Rain = 0
KAM1 111442Z 00013KT M06/M06 A3038 RMK A01 T10551060  RH  096%=      5-min Rain = 0
KAM1 111443Z 00012KT M06/M06 A3038 RMK A01 T10551060  RH  096%=      5-min Rain = 0
KAM1 111444Z 01012G18KT M05/M06 A3038 RMK A01 T10541059  RH  096%=      5-min Rain = 0
KAM1 111445Z 01012KT M05/M06 A3038 RMK A01 T10541060  RH  096%=      5-min Rain = 0
KAM1 111446Z 01012KT M05/M06 A3038 RMK A01 T10541060  RH  096%=      5-min Rain = 0
KAM1 111447Z 01011KT M05/M06 A3038 RMK A01 T10541059  RH  096%=      5-min Rain = 0
KAM1 111448Z 01012KT M05/M06 A3038 RMK A01 T10541060  RH  096%=      5-min Rain = 0
KAM1 111449Z 01013KT M05/M06 A3038 RMK A01 T10541060  RH  096%=      5-min Rain = 0
KAM1 111450Z 01013KT M05/M06 A3038 RMK A01 T10531060  RH  095%=      5-min Rain = 0
KAM1 111451Z 01014KT M05/M06 A3039 RMK A01 T10541060  RH  095%=      5-min Rain = 0
KAM1 111452Z 01015KT M05/M06 A3039 RMK A01 T10541062  RH  094%=      5-min Rain = 0
KAM1 111453Z 01015KT M06/M06 A3039 RMK A01 T10551064  RH  094%=      5-min Rain = 0
KAM1 111454Z 01014KT M06/M06 A3039 RMK A01 T10561064  RH  094%=      5-min Rain = 0
KAM1 111455Z 01014KT M06/M07 A3039 RMK A01 T10571065  RH  094%=      5-min Rain = 0
KAM1 111456Z 01015KT M06/M07 A3039 RMK A01 T10561065  RH  094%=      5-min Rain = 0
KAM1 111457Z 01013KT M06/M07 A3039 RMK A01 T10571065  RH  094%=      5-min Rain = 0
KAM1 111458Z 01017KT M06/M07 A304 RMK A01 T10581065  RH  094%=      5-min Rain = 0
KAM1 111459Z 02017KT M06/M07 A304 RMK A01 T10581065  RH  095%=      5-min Rain = 0
KAM1 111500Z 02015G20KT M06/M07 A304 RMK A01 T10581066  RH  095%=      5-min Rain = 0
KAM1 111501Z 01015KT M06/M07 A304 RMK A01 T10581065  RH  095%=      5-min Rain = 0
KAM1 111502Z 01016KT M06/M07 A304 RMK A01 T10591065  RH  095%=      5-min Rain = 0
KAM1 111503Z 02016KT M06/M07 A304 RMK A01 T10581065  RH  095%=      5-min Rain = 0
KAM1 111504Z 01016KT M06/M07 A304 RMK A01 T10581065  RH  095%=      5-min Rain = 0
KAM1 111505Z 01017KT M06/M07 A304 RMK A01 T10581065  RH  095%=      5-min Rain = 0
KAM1 111506Z 02015KT M06/M07 A304 RMK A01 T10581065  RH  095%=      5-min Rain = 0
KAM1 111507Z 01017KT M06/M07 A304 RMK A01 T10581066  RH  095%=      5-min Rain = 0
KAM1 111508Z 01013KT M06/M07 A304 RMK A01 T10591066  RH  094%=      5-min Rain = 0
KAM1 111509Z 00016KT M06/M07 A304 RMK A01 T10591067  RH  094%=      5-min Rain = 0
KAM1 111510Z 36014KT M06/M07 A304 RMK A01 T10601069  RH  094%=      5-min Rain = 0
KAM1 111511Z 00015G20KT M06/M07 A304 RMK A01 T10611070  RH  094%=      5-min Rain = 0
KAM1 111512Z 01016KT M06/M07 A304 RMK A01 T10621070  RH  094%=      5-min Rain = 0
KAM1 111513Z 02017KT M06/M07 A304 RMK A01 T10621070  RH  094%=      5-min Rain = 0
KAM1 111514Z 02016KT M06/M07 A3041 RMK A01 T10621071  RH  094%=      5-min Rain = 0
KAM1 111515Z 02015KT M06/M07 A304 RMK A01 T10621071  RH  094%=      5-min Rain = 0
KAM1 111516Z 02015KT M06/M07 A3041 RMK A01 T10631071  RH  094%=      5-min Rain = 0
KAM1 111517Z 02017KT M06/M07 A3041 RMK A01 T10631072  RH  093%=      5-min Rain = 0
KAM1 111518Z 02017KT M06/M07 A3041 RMK A01 T10621072  RH  093%=      5-min Rain = 0
KAM1 111519Z 02015G20KT M06/M07 A304 RMK A01 T10631073  RH  093%=      5-min Rain = 0
KAM1 111520Z 02015KT M06/M07 A3041 RMK A01 T10631073  RH  093%=      5-min Rain = 0
KAM1 111521Z 02014KT M06/M07 A3041 RMK A01 T10631072  RH  093%=      5-min Rain = 0
KAM1 111522Z 01011KT M06/M07 A3041 RMK A01 T10631072  RH  094%=      5-min Rain = 0
KAM1 111523Z 01011KT M06/M07 A3041 RMK A01 T10631071  RH  094%=      5-min Rain = 0
KAM1 111524Z 01012G18KT M06/M07 A3041 RMK A01 T10631070  RH  095%=      5-min Rain = 0
KAM1 111525Z 01013KT M06/M07 A3041 RMK A01 T10631069  RH  095%=      5-min Rain = 0
KAM1 111526Z 01011KT M06/M07 A3041 RMK A01 T10631069  RH  095%=      5-min Rain = 0
KAM1 111527Z 01011G18KT M06/M07 A3041 RMK A01 T10631068  RH  096%=      5-min Rain = 0
KAM1 111528Z 02015KT M06/M07 A3041 RMK A01 T10631068  RH  096%=      5-min Rain = 0
KAM1 111529Z 01015KT M06/M07 A3041 RMK A01 T10631069  RH  096%=      5-min Rain = 0
KAM1 111530Z 01015KT M06/M07 A3041 RMK A01 T10631069  RH  096%=      5-min Rain = 0
KAM1 111531Z 01011KT M06/M07 A3041 RMK A01 T10631069  RH  096%=      5-min Rain = 0
KAM1 111532Z 01012KT M06/M07 A3041 RMK A01 T10631068  RH  097%=      5-min Rain = 0
KAM1 111533Z 00015KT M06/M07 A3041 RMK A01 T10631067  RH  097%=      5-min Rain = 0
KAM1 111534Z 00015KT M06/M07 A3041 RMK A01 T10631069  RH  096%=      5-min Rain = 0
KAM1 111535Z 00014KT M06/M07 A3041 RMK A01 T10641070  RH  096%=      5-min Rain = 0
KAM1 111536Z 01017KT M07/M07 A3042 RMK A01 T10651070  RH  096%=      5-min Rain = 0
KAM1 111537Z 00015KT M07/M07 A3042 RMK A01 T10651071  RH  096%=      5-min Rain = 0
KAM1 111538Z 01016KT M07/M07 A3042 RMK A01 T10661071  RH  096%=      5-min Rain = 0
KAM1 111539Z 01013G18KT M07/M07 A3042 RMK A01 T10661071  RH  096%=      5-min Rain = 0
KAM1 111540Z 01015KT M07/M07 A3042 RMK A01 T10661071  RH  096%=      5-min Rain = 0
KAM1 111541Z 00014KT M07/M07 A3042 RMK A01 T10661072  RH  096%=      5-min Rain = 0
KAM1 111542Z 01016KT M07/M07 A3042 RMK A01 T10661072  RH  096%=      5-min Rain = 0
KAM1 111543Z 01017KT M07/M07 A3042 RMK A01 T10661071  RH  096%=      5-min Rain = 0
KAM1 111544Z 02013KT M07/M07 A3043 RMK A01 T10661072  RH  096%=      5-min Rain = 0
KAM1 111545Z 02014G19KT M07/M07 A3043 RMK A01 T10661071  RH  096%=      5-min Rain = 0
KAM1 111546Z 02014KT M07/M07 A3042 RMK A01 T10651070  RH  096%=      5-min Rain = 0
KAM1 111547Z 01012KT M07/M07 A3042 RMK A01 T10651071  RH  096%=      5-min Rain = 0
KAM1 111548Z 00013KT M07/M07 A3042 RMK A01 T10651071  RH  096%=      5-min Rain = 0
KAM1 111549Z 00014KT M07/M07 A3043 RMK A01 T10651071  RH  095%=      5-min Rain = 0
KAM1 111550Z 00015KT M07/M07 A3043 RMK A01 T10651072  RH  095%=      5-min Rain = 0
KAM1 111551Z 01015KT M07/M07 A3043 RMK A01 T10661074  RH  094%=      5-min Rain = 0
KAM1 111552Z 36016KT M07/M08 A3043 RMK A01 T10671075  RH  094%=      5-min Rain = 0
KAM1 111553Z 00014KT M07/M08 A3043 RMK A01 T10671076  RH  094%=      5-min Rain = 0
KAM1 111554Z 01015KT M07/M08 A3043 RMK A01 T10671076  RH  094%=      5-min Rain = 0
KAM1 111555Z 01014G20KT M07/M08 A3043 RMK A01 T10671076  RH  093%=      5-min Rain = 0
KAM1 111556Z 01015KT M07/M08 A3043 RMK A01 T10681077  RH  093%=      5-min Rain = 0
KAM1 111557Z 01013G18KT M07/M08 A3043 RMK A01 T10681078  RH  093%=      5-min Rain = 0
KAM1 111558Z 01014G20KT M07/M08 A3043 RMK A01 T10681078  RH  093%=      5-min Rain = 0
KAM1 111559Z 01014G19KT M07/M08 A3043 RMK A01 T10681077  RH  093%=      5-min Rain = 0
KAM1 111600Z 01014KT M07/M08 A3043 RMK A01 T10681078  RH  093%=      5-min Rain = 0
KAM1 111601Z 01011KT M07/M08 A3043 RMK A01 T10681078  RH  092%=      5-min Rain = 0
KAM1 111602Z 01016KT M07/M08 A3043 RMK A01 T10671077  RH  092%=      5-min Rain = 0
KAM1 111603Z 01017KT M07/M08 A3043 RMK A01 T10671078  RH  092%=      5-min Rain = 0
KAM1 111604Z 01017KT M07/M08 A3043 RMK A01 T10671079  RH  091%=      5-min Rain = 0
KAM1 111605Z 00016KT M07/M08 A3043 RMK A01 T10671080  RH  091%=      5-min Rain = 0
KAM1 111606Z 01015KT M07/M08 A3044 RMK A01 T10671080  RH  091%=      5-min Rain = 0
KAM1 111607Z 01014KT M07/M08 A3044 RMK A01 T10671080  RH  091%=      5-min Rain = 0
KAM1 111608Z 01014KT M07/M08 A3044 RMK A01 T10681080  RH  091%=      5-min Rain = 0
KAM1 111609Z 01012KT M07/M08 A3044 RMK A01 T10681080  RH  091%=      5-min Rain = 0
KAM1 111610Z 01012KT M07/M08 A3044 RMK A01 T10681079  RH  092%=      5-min Rain = 0
KAM1 111611Z 01014KT M07/M08 A3044 RMK A01 T10671078  RH  092%=      5-min Rain = 0
KAM1 111612Z 00012KT M07/M08 A3043 RMK A01 T10671078  RH  092%=      5-min Rain = 0
KAM1 111613Z 00015KT M07/M08 A3044 RMK A01 T10671078  RH  092%=      5-min Rain = 0
KAM1 111614Z 00015KT M07/M08 A3043 RMK A01 T10671079  RH  091%=      5-min Rain = 0
KAM1 111615Z 00014KT M07/M08 A3044 RMK A01 T10681080  RH  091%=      5-min Rain = 0
KAM1 111616Z 00014KT M07/M08 A3044 RMK A01 T10681080  RH  091%=      5-min Rain = 0
KAM1 111617Z 01013KT M07/M08 A3044 RMK A01 T10681080  RH  091%=      5-min Rain = 0
KAM1 111618Z 01017KT M07/M08 A3044 RMK A01 T10671080  RH  091%=      5-min Rain = 0
KAM1 111619Z 00014G19KT M07/M08 A3044 RMK A01 T10671082  RH  089%=      5-min Rain = 0
KAM1 111620Z 01016KT M07/M08 A3044 RMK A01 T10681083  RH  089%=      5-min Rain = 0
KAM1 111621Z 00017KT M07/M08 A3044 RMK A01 T10681083  RH  089%=      5-min Rain = 0
KAM1 111622Z 00017G22KT M07/M08 A3043 RMK A01 T10681084  RH  088%=      5-min Rain = 0
KAM1 111623Z 00016G23KT M07/M09 A3044 RMK A01 T10681086  RH  087%=      5-min Rain = 0
KAM1 111624Z 01016KT M07/M09 A3044 RMK A01 T10681086  RH  087%=      5-min Rain = 0
KAM1 111625Z 00016G22KT M07/M09 A3044 RMK A01 T10681086  RH  087%=      5-min Rain = 0
KAM1 111626Z 01018KT M07/M09 A3044 RMK A01 T10681087  RH  086%=      5-min Rain = 0
KAM1 111627Z 00016KT M07/M09 A3044 RMK A01 T10681089  RH  085%=      5-min Rain = 0
KAM1 111628Z 01016KT M07/M09 A3044 RMK A01 T10691090  RH  085%=      5-min Rain = 0
KAM1 111629Z 00018KT M07/M09 A3044 RMK A01 T10691090  RH  085%=      5-min Rain = 0
KAM1 111630Z 01018KT M07/M09 A3044 RMK A01 T10691090  RH  085%=      5-min Rain = 0
KAM1 111631Z 00017G22KT M07/M09 A3044 RMK A01 T10691090  RH  085%=      5-min Rain = 0
KAM1 111632Z 01016KT M07/M09 A3045 RMK A01 T10681090  RH  085%=      5-min Rain = 0
KAM1 111633Z 01018KT M07/M09 A3045 RMK A01 T10681090  RH  084%=      5-min Rain = 0
KAM1 111634Z 01015KT M07/M09 A3044 RMK A01 T10681091  RH  084%=      5-min Rain = 0
KAM1 111635Z 01016G21KT M07/M09 A3044 RMK A01 T10681090  RH  084%=      5-min Rain = 0
KAM1 111636Z 01016KT M07/M09 A3045 RMK A01 T10661089  RH  084%=      5-min Rain = 0
KAM1 111637Z 01016KT M07/M09 A3045 RMK A01 T10661090  RH  083%=      5-min Rain = 0
KAM1 111638Z 01017KT M07/M09 A3045 RMK A01 T10661090  RH  083%=      5-min Rain = 0
KAM1 111639Z 01015KT M07/M09 A3045 RMK A01 T10671091  RH  083%=      5-min Rain = 0
KAM1 111640Z 00013KT M07/M09 A3045 RMK A01 T10671090  RH  084%=      5-min Rain = 0
KAM1 111641Z 01018KT M07/M09 A3045 RMK A01 T10661089  RH  084%=      5-min Rain = 0
KAM1 111642Z 01017KT M07/M09 A3045 RMK A01 T10661091  RH  083%=      5-min Rain = 0
KAM1 111643Z 01017KT M07/M09 A3045 RMK A01 T10661090  RH  083%=      5-min Rain = 0
KAM1 111644Z 00012G17KT M07/M09 A3044 RMK A01 T10671089  RH  084%=      5-min Rain = 0
KAM1 111645Z 01014G20KT M07/M09 A3045 RMK A01 T10651087  RH  085%=      5-min Rain = 0
KAM1 111646Z 01016KT M07/M09 A3045 RMK A01 T10651086  RH  085%=      5-min Rain = 0
KAM1 111647Z 00014KT M06/M09 A3045 RMK A01 T10641087  RH  084%=      5-min Rain = 0
KAM1 111648Z 00013KT M06/M09 A3045 RMK A01 T10641086  RH  085%=      5-min Rain = 0
KAM1 111649Z 01012KT M06/M08 A3045 RMK A01 T10631083  RH  086%=      5-min Rain = 0
KAM1 111650Z 36014KT M06/M08 A3045 RMK A01 T10631082  RH  086%=      5-min Rain = 0
KAM1 111651Z 00013KT M06/M08 A3045 RMK A01 T10631084  RH  085%=      5-min Rain = 0
KAM1 111652Z 00016KT M06/M09 A3045 RMK A01 T10641086  RH  085%=      5-min Rain = 0
KAM1 111653Z 01014G19KT M06/M09 A3045 RMK A01 T10641086  RH  085%=      5-min Rain = 0
KAM1 111654Z 00014G20KT M07/M09 A3045 RMK A01 T10651087  RH  085%=      5-min Rain = 0
KAM1 111655Z 00012KT M07/M09 A3045 RMK A01 T10651085  RH  086%=      5-min Rain = 0
KAM1 111656Z 00016KT M06/M08 A3045 RMK A01 T10641084  RH  086%=      5-min Rain = 0
KAM1 111657Z 00016KT M06/M09 A3045 RMK A01 T10641086  RH  085%=      5-min Rain = 0
KAM1 111658Z 01015KT M07/M09 A3045 RMK A01 T10651087  RH  084%=      5-min Rain = 0
KAM1 111659Z 01013KT M06/M09 A3045 RMK A01 T10641086  RH  085%=      5-min Rain = 0
KAM1 111700Z 01013KT M06/M08 A3045 RMK A01 T10631084  RH  085%=      5-min Rain = 0
KAM1 111701Z 01016KT M06/M09 A3045 RMK A01 T10621085  RH  084%=      5-min Rain = 0
KAM1 111702Z 01016KT M06/M09 A3045 RMK A01 T10631087  RH  083%=      5-min Rain = 0
KAM1 111703Z 00015KT M06/M09 A3045 RMK A01 T10631088  RH  083%=      5-min Rain = 0
KAM1 111704Z 00013KT M06/M09 A3045 RMK A01 T10641088  RH  083%=      5-min Rain = 0
KAM1 111705Z 00015G20KT M06/M09 A3045 RMK A01 T10631087  RH  083%=      5-min Rain = 0
KAM1 111706Z 36015KT M06/M09 A3045 RMK A01 T10641088  RH  083%=      5-min Rain = 0
KAM1 111707Z 00015KT M06/M09 A3045 RMK A01 T10641088  RH  083%=      5-min Rain = 0
KAM1 111708Z 00016KT M06/M09 A3045 RMK A01 T10641088  RH  083%=      5-min Rain = 0
KAM1 111709Z 00015KT M06/M09 A3045 RMK A01 T10641089  RH  083%=      5-min Rain = 0
KAM1 111710Z 00016KT M06/M09 A3046 RMK A01 T10631088  RH  083%=      5-min Rain = 0
KAM1 111711Z 00015KT M06/M09 A3045 RMK A01 T10631088  RH  083%=      5-min Rain = 0
KAM1 111712Z 00015KT M06/M09 A3045 RMK A01 T10631087  RH  083%=      5-min Rain = 0
KAM1 111713Z 36015KT M06/M09 A3046 RMK A01 T10621087  RH  083%=      5-min Rain = 0
KAM1 111714Z 01015KT M06/M09 A3046 RMK A01 T10621087  RH  083%=      5-min Rain = 0
KAM1 111715Z 00016KT M06/M09 A3046 RMK A01 T10621088  RH  082%=      5-min Rain = 0
KAM1 111716Z 01018KT M06/M09 A3046 RMK A01 T10621088  RH  082%=      5-min Rain = 0
KAM1 111717Z 36015KT M06/M09 A3045 RMK A01 T10631089  RH  082%=      5-min Rain = 0
KAM1 111718Z 00012KT M06/M09 A3046 RMK A01 T10631088  RH  082%=      5-min Rain = 0
KAM1 111719Z 00014KT M06/M09 A3046 RMK A01 T10611085  RH  083%=      5-min Rain = 0
KAM1 111720Z 00014KT M06/M09 A3046 RMK A01 T10601085  RH  083%=      5-min Rain = 0
KAM1 111721Z 00015KT M06/M09 A3045 RMK A01 T10601085  RH  082%=      5-min Rain = 0
KAM1 111722Z 01014KT M06/M09 A3045 RMK A01 T10601085  RH  082%=      5-min Rain = 0
KAM1 111723Z 00015KT M06/M09 A3045 RMK A01 T10591085  RH  082%=      5-min Rain = 0
KAM1 111724Z 36014KT M06/M09 A3045 RMK A01 T10591086  RH  081%=      5-min Rain = 0
KAM1 111725Z 01014KT M06/M09 A3046 RMK A01 T10591086  RH  081%=      5-min Rain = 0
KAM1 111726Z 00015KT M06/M09 A3046 RMK A01 T10601087  RH  081%=      5-min Rain = 0
KAM1 111727Z 00015KT M06/M09 A3046 RMK A01 T10601088  RH  081%=      5-min Rain = 0
KAM1 111728Z 01014KT M06/M09 A3046 RMK A01 T10611088  RH  081%=      5-min Rain = 0
KAM1 111729Z 01014G19KT M06/M09 A3046 RMK A01 T10601086  RH  082%=      5-min Rain = 0
KAM1 111730Z 01015G20KT M06/M09 A3046 RMK A01 T10591086  RH  081%=      5-min Rain = 0
KAM1 111731Z 01017KT M06/M09 A3046 RMK A01 T10601089  RH  080%=      5-min Rain = 0
KAM1 111732Z 01015KT M06/M09 A3046 RMK A01 T10601091  RH  079%=      5-min Rain = 0
KAM1 111733Z 01015KT M06/M09 A3046 RMK A01 T10601091  RH  079%=      5-min Rain = 0
KAM1 111734Z 01017KT M06/M09 A3046 RMK A01 T10601091  RH  078%=      5-min Rain = 0
KAM1 111735Z 01016KT M06/M09 A3046 RMK A01 T10601092  RH  078%=      5-min Rain = 0
KAM1 111736Z 01014KT M06/M09 A3046 RMK A01 T10601092  RH  079%=      5-min Rain = 0
KAM1 111737Z 36016KT M06/M09 A3046 RMK A01 T10591090  RH  079%=      5-min Rain = 0
KAM1 111738Z 36015G20KT M06/M09 A3046 RMK A01 T10591090  RH  078%=      5-min Rain = 0
KAM1 111739Z 36015KT M06/M09 A3047 RMK A01 T10591092  RH  078%=      5-min Rain = 0
KAM1 111740Z 00013KT M06/M09 A3047 RMK A01 T10591091  RH  078%=      5-min Rain = 0
KAM1 111741Z 00016KT M06/M09 A3047 RMK A01 T10571090  RH  078%=      5-min Rain = 0
KAM1 111742Z 01014G19KT M06/M09 A3047 RMK A01 T10571091  RH  077%=      5-min Rain = 0
KAM1 111743Z 00017KT M06/M09 A3047 RMK A01 T10571093  RH  076%=      5-min Rain = 0
KAM1 111744Z 01017KT M06/M09 A3047 RMK A01 T10571094  RH  075%=      5-min Rain = 0
KAM1 111745Z 01016KT M06/M10 A3047 RMK A01 T10571095  RH  075%=      5-min Rain = 0
KAM1 111746Z 02015KT M06/M10 A3047 RMK A01 T10571095  RH  074%=      5-min Rain = 0
KAM1 111747Z 01016KT M06/M10 A3047 RMK A01 T10561096  RH  073%=      5-min Rain = 0
KAM1 111748Z 01016KT M06/M10 A3047 RMK A01 T10551097  RH  073%=      5-min Rain = 0
KAM1 111749Z 01018G23KT M06/M10 A3047 RMK A01 T10551098  RH  072%=      5-min Rain = 0
KAM1 111750Z 01018KT M06/M10 A3047 RMK A01 T10551100  RH  071%=      5-min Rain = 0
KAM1 111751Z 01015KT M06/M10 A3047 RMK A01 T10551100  RH  071%=      5-min Rain = 0
KAM1 111752Z 01015KT M05/M10 A3047 RMK A01 T10541099  RH  071%=      5-min Rain = 0
KAM1 111753Z 01015KT M05/M10 A3047 RMK A01 T10531098  RH  070%=      5-min Rain = 0
KAM1 111754Z 01017KT M05/M10 A3047 RMK A01 T10521098  RH  070%=      5-min Rain = 0
KAM1 111755Z 01016KT M05/M10 A3047 RMK A01 T10511098  RH  070%=      5-min Rain = 0
KAM1 111756Z 01014KT M05/M10 A3047 RMK A01 T10501097  RH  070%=      5-min Rain = 0
KAM1 111757Z 00018KT M05/M10 A3047 RMK A01 T10491097  RH  069%=      5-min Rain = 0
KAM1 111758Z 00015KT M05/M10 A3047 RMK A01 T10491099  RH  068%=      5-min Rain = 0
KAM1 111759Z 00018KT M05/M10 A3047 RMK A01 T10491099  RH  068%=      5-min Rain = 0
KAM1 111800Z 01017KT M05/M10 A3047 RMK A01 T10491100  RH  068%=      5-min Rain = 0
KAM1 111801Z 36015G20KT M05/M10 A3047 RMK A01 T10491099  RH  068%=      5-min Rain = 0
KAM1 111802Z 00016KT M05/M10 A3047 RMK A01 T10471098  RH  068%=      5-min Rain = 0
KAM1 111803Z 01017KT M05/M10 A3047 RMK A01 T10461097  RH  067%=      5-min Rain = 0
KAM1 111804Z 01016KT M04/M10 A3047 RMK A01 T10441096  RH  067%=      5-min Rain = 0
KAM1 111805Z 00014KT M04/M10 A3048 RMK A01 T10431095  RH  067%=      5-min Rain = 0
KAM1 111806Z 00017KT M04/M10 A3048 RMK A01 T10421095  RH  066%=      5-min Rain = 0
KAM1 111807Z 01018G23KT M04/M10 A3048 RMK A01 T10411095  RH  066%=      5-min Rain = 0
KAM1 111808Z 00018KT M04/M10 A3047 RMK A01 T10411096  RH  065%=      5-min Rain = 0
KAM1 111809Z 01015G21KT M04/M10 A3047 RMK A01 T10411097  RH  065%=      5-min Rain = 0
KAM1 111810Z 01018KT M04/M10 A3048 RMK A01 T10411097  RH  065%=      5-min Rain = 0
KAM1 111811Z 01016G21KT M04/M10 A3048 RMK A01 T10441101  RH  064%=      5-min Rain = 0
KAM1 111812Z 01017KT M05/M10 A3048 RMK A01 T10461101  RH  065%=      5-min Rain = 0
KAM1 111813Z 02016G21KT M05/M10 A3048 RMK A01 T10461101  RH  066%=      5-min Rain = 0
KAM1 111814Z 01017G22KT M05/M10 A3048 RMK A01 T10461100  RH  066%=      5-min Rain = 0
KAM1 111815Z 01017KT M05/M10 A3048 RMK A01 T10451099  RH  066%=      5-min Rain = 0
KAM1 111816Z 01016G21KT M05/M10 A3048 RMK A01 T10451099  RH  066%=      5-min Rain = 0
KAM1 111817Z 00015KT M04/M10 A3048 RMK A01 T10431096  RH  066%=      5-min Rain = 0
KAM1 111818Z 00016KT M04/M10 A3048 RMK A01 T10441099  RH  065%=      5-min Rain = 0
KAM1 111819Z 00017KT M05/M10 A3048 RMK A01 T10451101  RH  065%=      5-min Rain = 0
KAM1 111820Z 00018KT M05/M10 A3048 RMK A01 T10461102  RH  065%=      5-min Rain = 0
KAM1 111821Z 01017KT M05/M10 A3048 RMK A01 T10481103  RH  065%=      5-min Rain = 0
KAM1 111822Z 00015KT M05/M10 A3048 RMK A01 T10491103  RH  066%=      5-min Rain = 0
KAM1 111823Z 00017KT M05/M10 A3048 RMK A01 T10481100  RH  067%=      5-min Rain = 0
KAM1 111824Z 01015KT M05/M10 A3048 RMK A01 T10481101  RH  067%=      5-min Rain = 0
KAM1 111825Z 01016KT M05/M10 A3048 RMK A01 T10481100  RH  067%=      5-min Rain = 0
KAM1 111826Z 00016KT M05/M10 A3048 RMK A01 T10481101  RH  067%=      5-min Rain = 0
KAM1 111827Z 01018KT M05/M10 A3048 RMK A01 T10481101  RH  067%=      5-min Rain = 0
KAM1 111828Z 01014KT M05/M10 A3048 RMK A01 T10491101  RH  067%=      5-min Rain = 0
KAM1 111829Z 36015KT M05/M10 A3048 RMK A01 T10491100  RH  067%=      5-min Rain = 0
KAM1 111830Z 01012KT M05/M10 A3048 RMK A01 T10481098  RH  068%=      5-min Rain = 0
KAM1 111831Z 00017KT M05/M10 A3047 RMK A01 T10471098  RH  068%=      5-min Rain = 0
KAM1 111832Z 01015G20KT M05/M10 A3048 RMK A01 T10481099  RH  067%=      5-min Rain = 0
KAM1 111833Z 01015KT M05/M10 A3048 RMK A01 T10481098  RH  068%=      5-min Rain = 0
KAM1 111834Z 01016KT M05/M10 A3048 RMK A01 T10471097  RH  068%=      5-min Rain = 0
KAM1 111835Z 01015KT M05/M10 A3048 RMK A01 T10471096  RH  068%=      5-min Rain = 0
KAM1 111836Z 01013KT M05/M10 A3048 RMK A01 T10471096  RH  068%=      5-min Rain = 0
KAM1 111837Z 00013KT M05/M09 A3048 RMK A01 T10461093  RH  070%=      5-min Rain = 0
KAM1 111838Z 00015KT M05/M09 A3048 RMK A01 T10451093  RH  069%=      5-min Rain = 0
KAM1 111839Z 00014KT M05/M10 A3048 RMK A01 T10461095  RH  069%=      5-min Rain = 0
KAM1 111840Z 35014KT M05/M10 A3048 RMK A01 T10471095  RH  069%=      5-min Rain = 0
KAM1 111841Z 35013G18KT M05/M10 A3047 RMK A01 T10481095  RH  069%=      5-min Rain = 0
KAM1 111842Z 35013KT M05/M10 A3047 RMK A01 T10481095  RH  069%=      5-min Rain = 0
KAM1 111843Z 35011KT M05/M10 A3047 RMK A01 T10471095  RH  069%=      5-min Rain = 0
KAM1 111844Z 00014KT M05/M09 A3048 RMK A01 T10451092  RH  070%=      5-min Rain = 0
KAM1 111845Z 01015KT M05/M09 A3048 RMK A01 T10451093  RH  069%=      5-min Rain = 0
KAM1 111846Z 00015KT M05/M10 A3048 RMK A01 T10451095  RH  068%=      5-min Rain = 0
KAM1 111847Z 00014KT M05/M10 A3048 RMK A01 T10481098  RH  068%=      5-min Rain = 0
KAM1 111848Z 01012KT M05/M10 A3048 RMK A01 T10481098  RH  068%=      5-min Rain = 0
KAM1 111849Z 01016KT M05/M10 A3048 RMK A01 T10481096  RH  069%=      5-min Rain = 0
KAM1 111850Z 01015KT M05/M10 A3048 RMK A01 T10471096  RH  068%=      5-min Rain = 0
KAM1 111851Z 35015KT M05/M10 A3048 RMK A01 T10451095  RH  068%=      5-min Rain = 0
KAM1 111852Z 01015KT M04/M09 A3048 RMK A01 T10441094  RH  068%=      5-min Rain = 0
KAM1 111853Z 00018KT M04/M10 A3048 RMK A01 T10421095  RH  067%=      5-min Rain = 0
KAM1 111854Z 01015KT M04/M10 A3048 RMK A01 T10421096  RH  066%=      5-min Rain = 0
KAM1 111855Z 02013KT M04/M10 A3048 RMK A01 T10421096  RH  066%=      5-min Rain = 0
KAM1 111856Z 01013G18KT M04/M09 A3048 RMK A01 T10411094  RH  066%=      5-min Rain = 0
KAM1 111857Z 01015KT M04/M09 A3048 RMK A01 T10381092  RH  066%=      5-min Rain = 0
KAM1 111858Z 01016KT M04/M09 A3048 RMK A01 T10381094  RH  065%=      5-min Rain = 0
KAM1 111859Z 02016KT M04/M10 A3048 RMK A01 T10381095  RH  064%=      5-min Rain = 0
KAM1 111900Z 01016G21KT M04/M10 A3048 RMK A01 T10381096  RH  064%=      5-min Rain = 0
KAM1 111901Z 02016KT M04/M09 A3048 RMK A01 T10351093  RH  064%=      5-min Rain = 0
KAM1 111902Z 01015KT M03/M09 A3048 RMK A01 T10331092  RH  064%=      5-min Rain = 0
KAM1 111903Z 01016KT M03/M10 A3048 RMK A01 T10341095  RH  063%=      5-min Rain = 0
KAM1 111904Z 01014KT M04/M10 A3048 RMK A01 T10371097  RH  063%=      5-min Rain = 0
KAM1 111905Z 02014KT M04/M10 A3047 RMK A01 T10371096  RH  064%=      5-min Rain = 0
KAM1 111906Z 02012KT M04/M09 A3047 RMK A01 T10361094  RH  064%=      5-min Rain = 0
KAM1 111907Z 02012KT M03/M09 A3047 RMK A01 T10331091  RH  064%=      5-min Rain = 0
KAM1 111908Z 00013KT M03/M09 A3047 RMK A01 T10311089  RH  064%=      5-min Rain = 0
KAM1 111909Z 01015G20KT M03/M09 A3047 RMK A01 T10281090  RH  062%=      5-min Rain = 0
KAM1 111910Z 01012KT M03/M09 A3047 RMK A01 T10291093  RH  061%=      5-min Rain = 0
KAM1 111911Z 01013KT M03/M09 A3047 RMK A01 T10271091  RH  061%=      5-min Rain = 0
KAM1 111912Z 02015KT M02/M09 A3048 RMK A01 T10241089  RH  061%=      5-min Rain = 0
KAM1 111913Z 01017KT M03/M10 A3047 RMK A01 T10251095  RH  059%=      5-min Rain = 0
KAM1 111914Z 01014KT M03/M10 A3047 RMK A01 T10271096  RH  059%=      5-min Rain = 0
KAM1 111915Z 02017G22KT M03/M10 A3048 RMK A01 T10251095  RH  059%=      5-min Rain = 0
KAM1 111916Z 02016KT M03/M10 A3048 RMK A01 T10251096  RH  058%=      5-min Rain = 0
KAM1 111917Z 01015KT M03/M10 A3047 RMK A01 T10261098  RH  058%=      5-min Rain = 0
KAM1 111918Z 01017KT M03/M10 A3047 RMK A01 T10261097  RH  058%=      5-min Rain = 0
KAM1 111919Z 01014G20KT M03/M10 A3047 RMK A01 T10251096  RH  058%=      5-min Rain = 0
KAM1 111920Z 36016G21KT M02/M09 A3047 RMK A01 T10221094  RH  058%=      5-min Rain = 0
KAM1 111921Z 00018KT M02/M10 A3047 RMK A01 T10221097  RH  056%=      5-min Rain = 0
KAM1 111922Z 01015KT M03/M10 A3047 RMK A01 T10251101  RH  056%=      5-min Rain = 0
KAM1 111923Z 02016KT M03/M10 A3047 RMK A01 T10251099  RH  057%=      5-min Rain = 0
KAM1 111924Z 01015G20KT M03/M10 A3047 RMK A01 T10251099  RH  057%=      5-min Rain = 0
KAM1 111925Z 01016KT M02/M10 A3047 RMK A01 T10241099  RH  057%=      5-min Rain = 0
KAM1 111926Z 01016KT M03/M10 A3047 RMK A01 T10251100  RH  056%=      5-min Rain = 0
KAM1 111927Z 01015KT M03/M10 A3047 RMK A01 T10261101  RH  057%=      5-min Rain = 0
KAM1 111928Z 00016KT M03/M10 A3047 RMK A01 T10271101  RH  057%=      5-min Rain = 0
KAM1 111929Z 01017KT M03/M10 A3047 RMK A01 T10281102  RH  057%=      5-min Rain = 0
KAM1 111930Z 01016KT M03/M10 A3047 RMK A01 T10291102  RH  057%=      5-min Rain = 0
KAM1 111931Z 02017G22KT M03/M10 A3047 RMK A01 T10291102  RH  057%=      5-min Rain = 0
KAM1 111932Z 01017KT M03/M10 A3047 RMK A01 T10281102  RH  057%=      5-min Rain = 0
KAM1 111933Z 01016KT M03/M10 A3047 RMK A01 T10291103  RH  056%=      5-min Rain = 0
KAM1 111934Z 01017KT M03/M10 A3047 RMK A01 T10301104  RH  057%=      5-min Rain = 0
KAM1 111935Z 02015KT M03/M10 A3047 RMK A01 T10311104  RH  057%=      5-min Rain = 0
KAM1 111936Z 01012KT M03/M10 A3047 RMK A01 T10291101  RH  057%=      5-min Rain = 0
KAM1 111937Z 01013KT M02/M10 A3047 RMK A01 T10241096  RH  058%=      5-min Rain = 0
KAM1 111938Z 01017KT M02/M10 A3047 RMK A01 T10221097  RH  056%=      5-min Rain = 0
KAM1 111939Z 00017G24KT M02/M10 A3047 RMK A01 T10231100  RH  055%=      5-min Rain = 0
KAM1 111940Z 01019KT M02/M10 A3047 RMK A01 T10231101  RH  055%=      5-min Rain = 0
KAM1 111941Z 01016G23KT M03/M11 A3047 RMK A01 T10271106  RH  055%=      5-min Rain = 0
KAM1 111942Z 00016KT M03/M11 A3047 RMK A01 T10271105  RH  055%=      5-min Rain = 0
KAM1 111943Z 00014KT M03/M10 A3046 RMK A01 T10251102  RH  056%=      5-min Rain = 0
KAM1 111944Z 00016KT M02/M10 A3046 RMK A01 T10241101  RH  055%=      5-min Rain = 0
KAM1 111945Z 01014KT M02/M10 A3047 RMK A01 T10221100  RH  055%=      5-min Rain = 0
KAM1 111946Z 02014KT M02/M10 A3047 RMK A01 T10201099  RH  055%=      5-min Rain = 0
KAM1 111947Z 00014KT M02/M10 A3047 RMK A01 T10191098  RH  055%=      5-min Rain = 0
KAM1 111948Z 00017KT M02/M10 A3047 RMK A01 T10181098  RH  054%=      5-min Rain = 0
KAM1 111949Z 36017KT M02/M10 A3046 RMK A01 T10191102  RH  053%=      5-min Rain = 0
KAM1 111950Z 01018KT M02/M10 A3047 RMK A01 T10221104  RH  053%=      5-min Rain = 0
KAM1 111951Z 00017G22KT M02/M11 A3047 RMK A01 T10241105  RH  054%=      5-min Rain = 0
KAM1 111952Z 00017KT M03/M11 A3046 RMK A01 T10261106  RH  054%=      5-min Rain = 0
KAM1 111953Z 01016G21KT M02/M10 A3047 RMK A01 T10241103  RH  055%=      5-min Rain = 0
KAM1 111954Z 01018G23KT M02/M10 A3047 RMK A01 T10231103  RH  055%=      5-min Rain = 0
KAM1 111955Z 01017KT M02/M10 A3047 RMK A01 T10231102  RH  054%=      5-min Rain = 0
KAM1 111956Z 02015KT M02/M10 A3047 RMK A01 T10181098  RH  054%=      5-min Rain = 0
KAM1 111957Z 02015KT M02/M10 A3047 RMK A01 T10171099  RH  054%=      5-min Rain = 0
KAM1 111958Z 36016KT M02/M10 A3047 RMK A01 T10171100  RH  053%=      5-min Rain = 0
KAM1 111959Z 36016KT M02/M10 A3047 RMK A01 T10181101  RH  053%=      5-min Rain = 0
KAM1 112000Z 01019KT M02/M10 A3047 RMK A01 T10191101  RH  053%=      5-min Rain = 0
KAM1 112001Z 01016KT M02/M10 A3047 RMK A01 T10211104  RH  053%=      5-min Rain = 0
KAM1 112002Z 01017KT M02/M10 A3047 RMK A01 T10211104  RH  053%=      5-min Rain = 0
KAM1 112003Z 01014KT M02/M10 A3047 RMK A01 T10211103  RH  053%=      5-min Rain = 0
KAM1 112004Z 00015G21KT M02/M10 A3047 RMK A01 T10191101  RH  054%=      5-min Rain = 0
KAM1 112005Z 01015KT M02/M10 A3047 RMK A01 T10181100  RH  054%=      5-min Rain = 0
KAM1 112006Z 01016KT M02/M10 A3047 RMK A01 T10181101  RH  053%=      5-min Rain = 0
KAM1 112007Z 02015KT M02/M10 A3047 RMK A01 T10201102  RH  053%=      5-min Rain = 0
KAM1 112008Z 02012KT M02/M10 A3047 RMK A01 T10201101  RH  054%=      5-min Rain = 0
KAM1 112009Z 01013G19KT M02/M10 A3047 RMK A01 T10161095  RH  055%=      5-min Rain = 0
KAM1 112010Z 01016G21KT M01/M10 A3047 RMK A01 T10131095  RH  054%=      5-min Rain = 0
KAM1 112011Z 00015KT M01/M10 A3047 RMK A01 T10131096  RH  053%=      5-min Rain = 0
KAM1 112012Z 00016KT M01/M10 A3047 RMK A01 T10141098  RH  053%=      5-min Rain = 0
KAM1 112013Z 00013G19KT M02/M10 A3047 RMK A01 T10151099  RH  053%=      5-min Rain = 0
KAM1 112014Z 01016G21KT M02/M10 A3047 RMK A01 T10151098  RH  053%=      5-min Rain = 0
KAM1 112015Z 01017KT M02/M10 A3047 RMK A01 T10171102  RH  052%=      5-min Rain = 0
KAM1 112016Z 01013G18KT M02/M10 A3047 RMK A01 T10191103  RH  053%=      5-min Rain = 0
KAM1 112017Z 01014KT M02/M10 A3047 RMK A01 T10181101  RH  053%=      5-min Rain = 0
KAM1 112018Z 00017KT M02/M10 A3047 RMK A01 T10181102  RH  053%=      5-min Rain = 0
KAM1 112019Z 00020KT M02/M10 A3047 RMK A01 T10201104  RH  052%=      5-min Rain = 0
KAM1 112020Z 00016G21KT M02/M10 A3047 RMK A01 T10211104  RH  053%=      5-min Rain = 0
KAM1 112021Z 36017G23KT M02/M10 A3047 RMK A01 T10201102  RH  053%=      5-min Rain = 0
KAM1 112022Z 00018KT M02/M10 A3047 RMK A01 T10181101  RH  053%=      5-min Rain = 0
KAM1 112023Z 01017KT M02/M10 A3047 RMK A01 T10191103  RH  053%=      5-min Rain = 0
KAM1 112024Z 00017KT M02/M11 A3047 RMK A01 T10211105  RH  053%=      5-min Rain = 0
KAM1 112025Z 00016KT M02/M10 A3047 RMK A01 T10211104  RH  053%=      5-min Rain = 0
KAM1 112026Z 00017G22KT M02/M10 A3047 RMK A01 T10191102  RH  053%=      5-min Rain = 0
KAM1 112027Z 01017G25KT M02/M10 A3047 RMK A01 T10171100  RH  053%=      5-min Rain = 0
KAM1 112028Z 36021KT M01/M10 A3047 RMK A01 T10141098  RH  053%=      5-min Rain = 0
KAM1 112029Z 00018G24KT M01/M10 A3046 RMK A01 T10141101  RH  052%=      5-min Rain = 0
KAM1 112030Z 00017G22KT M01/M10 A3047 RMK A01 T10131099  RH  052%=      5-min Rain = 0
KAM1 112031Z 00021KT M01/M10 A3046 RMK A01 T10101098  RH  052%=      5-min Rain = 0
KAM1 112032Z 00019KT M01/M10 A3047 RMK A01 T10111101  RH  051%=      5-min Rain = 0
KAM1 112033Z 00018KT M01/M10 A3047 RMK A01 T10121101  RH  051%=      5-min Rain = 0
KAM1 112034Z 02018G24KT M01/M10 A3047 RMK A01 T10121100  RH  051%=      5-min Rain = 0
KAM1 112035Z 02021G26KT M01/M10 A3047 RMK A01 T10101099  RH  051%=      5-min Rain = 0
KAM1 112036Z 02022KT M01/M10 A3047 RMK A01 T10091099  RH  051%=      5-min Rain = 0
KAM1 112037Z 01021KT M01/M10 A3047 RMK A01 T10111102  RH  050%=      5-min Rain = 0
KAM1 112038Z 01018G24KT M01/M10 A3047 RMK A01 T10121102  RH  050%=      5-min Rain = 0
KAM1 112039Z 01021G26KT M01/M10 A3047 RMK A01 T10121102  RH  050%=      5-min Rain = 0
KAM1 112040Z 01020KT M01/M10 A3047 RMK A01 T10121103  RH  050%=      5-min Rain = 0
KAM1 112041Z 02019KT M01/M10 A3046 RMK A01 T10121102  RH  050%=      5-min Rain = 0
KAM1 112042Z 02021KT M01/M10 A3047 RMK A01 T10111101  RH  051%=      5-min Rain = 0
KAM1 112043Z 02021G26KT M01/M10 A3047 RMK A01 T10131103  RH  050%=      5-min Rain = 0
KAM1 112044Z 02020KT M01/M10 A3047 RMK A01 T10141104  RH  051%=      5-min Rain = 0
KAM1 112045Z 01017KT M01/M10 A3046 RMK A01 T10141103  RH  051%=      5-min Rain = 0
KAM1 112046Z 02018KT M01/M10 A3046 RMK A01 T10131101  RH  051%=      5-min Rain = 0
KAM1 112047Z 02019KT M01/M10 A3047 RMK A01 T10131102  RH  051%=      5-min Rain = 0
KAM1 112048Z 01018G25KT M01/M10 A3046 RMK A01 T10131102  RH  051%=      5-min Rain = 0
KAM1 112049Z 00021G27KT M01/M10 A3047 RMK A01 T10121100  RH  051%=      5-min Rain = 0
KAM1 112050Z 00025KT M01/M10 A3047 RMK A01 T10131103  RH  050%=      5-min Rain = 0
KAM1 112051Z 00019G24KT M02/M11 A3047 RMK A01 T10151105  RH  051%=      5-min Rain = 0
KAM1 112052Z 01017G22KT M02/M10 A3047 RMK A01 T10151102  RH  051%=      5-min Rain = 0
KAM1 112053Z 00021KT M01/M10 A3047 RMK A01 T10131101  RH  051%=      5-min Rain = 0
KAM1 112054Z 02023G29KT M01/M10 A3047 RMK A01 T10131102  RH  051%=      5-min Rain = 0
KAM1 112055Z 01022G27KT M02/M11 A3047 RMK A01 T10151105  RH  050%=      5-min Rain = 0
KAM1 112056Z 01021G28KT M02/M10 A3047 RMK A01 T10161104  RH  051%=      5-min Rain = 0
KAM1 112057Z 01021KT M02/M10 A3047 RMK A01 T10161104  RH  051%=      5-min Rain = 0
KAM1 112058Z 01017G23KT M02/M11 A3047 RMK A01 T10181106  RH  051%=      5-min Rain = 0
KAM1 112059Z 01021G26KT M02/M10 A3047 RMK A01 T10171103  RH  052%=      5-min Rain = 0
KAM1 112100Z 01021KT M02/M10 A3047 RMK A01 T10151102  RH  052%=      5-min Rain = 0
KAM1 112101Z 01019KT M02/M10 A3047 RMK A01 T10151102  RH  051%=      5-min Rain = 0
KAM1 112102Z 02022G28KT M01/M10 A3047 RMK A01 T10121100  RH  051%=      5-min Rain = 0
KAM1 112103Z 01024KT M01/M10 A3047 RMK A01 T10111100  RH  051%=      5-min Rain = 0
KAM1 112104Z 01020G25KT M01/M10 A3047 RMK A01 T10111101  RH  051%=      5-min Rain = 0
KAM1 112105Z 01022G27KT M01/M10 A3047 RMK A01 T10111100  RH  051%=      5-min Rain = 0
KAM1 112106Z 01019G25KT M01/M10 A3047 RMK A01 T10111101  RH  050%=      5-min Rain = 0
KAM1 112107Z 01022G27KT M01/M10 A3047 RMK A01 T10111101  RH  050%=      5-min Rain = 0
KAM1 112108Z 02022KT M01/M10 A3047 RMK A01 T10111102  RH  050%=      5-min Rain = 0
KAM1 112109Z 01021KT M01/M10 A3047 RMK A01 T10111102  RH  050%=      5-min Rain = 0
KAM1 112110Z 36020KT M01/M10 A3047 RMK A01 T10111102  RH  050%=      5-min Rain = 0
KAM1 112111Z 01015G20KT M01/M10 A3047 RMK A01 T10131103  RH  050%=      5-min Rain = 0
KAM1 112112Z 01019KT M01/M10 A3047 RMK A01 T10131102  RH  051%=      5-min Rain = 0
KAM1 112113Z 36019G25KT M01/M10 A3047 RMK A01 T10131101  RH  051%=      5-min Rain = 0
KAM1 112114Z 01024KT M01/M10 A3047 RMK A01 T10121101  RH  051%=      5-min Rain = 0
KAM1 112115Z 01019G24KT M01/M10 A3047 RMK A01 T10111102  RH  050%=      5-min Rain = 0
KAM1 112116Z 01021G26KT M01/M10 A3047 RMK A01 T10101101  RH  050%=      5-min Rain = 0
KAM1 112117Z 01019G25KT M01/M10 A3047 RMK A01 T10101101  RH  050%=      5-min Rain = 0
KAM1 112118Z 01014KT M01/M10 A3047 RMK A01 T10091101  RH  050%=      5-min Rain = 0
KAM1 112119Z 01016G23KT M01/M10 A3047 RMK A01 T10071098  RH  050%=      5-min Rain = 0
KAM1 112120Z 00024KT M01/M10 A3047 RMK A01 T10061099  RH  049%=      5-min Rain = 0
KAM1 112121Z 00025KT M01/M10 A3048 RMK A01 T10091104  RH  048%=      5-min Rain = 0
KAM1 112122Z 01022KT M01/M11 A3048 RMK A01 T10121107  RH  049%=      5-min Rain = 0
KAM1 112123Z 02025KT M01/M11 A3048 RMK A01 T10141108  RH  049%=      5-min Rain = 0
KAM1 112124Z 01022G27KT M02/M11 A3048 RMK A01 T10161109  RH  049%=      5-min Rain = 0
KAM1 112125Z 01020G25KT M02/M11 A3047 RMK A01 T10181109  RH  050%=      5-min Rain = 0
KAM1 112126Z 00019G26KT M02/M11 A3047 RMK A01 T10191108  RH  050%=      5-min Rain = 0
KAM1 112127Z 00022KT M02/M11 A3047 RMK A01 T10191109  RH  050%=      5-min Rain = 0
KAM1 112128Z 00020KT M02/M11 A3047 RMK A01 T10201110  RH  050%=      5-min Rain = 0
KAM1 112129Z 00018G23KT M02/M11 A3047 RMK A01 T10201109  RH  050%=      5-min Rain = 0
KAM1 112130Z 00018G23KT M02/M11 A3047 RMK A01 T10181107  RH  051%=      5-min Rain = 0
KAM1 112131Z 01019G24KT M02/M11 A3048 RMK A01 T10151105  RH  050%=      5-min Rain = 0
KAM1 112132Z 01021G27KT M01/M11 A3048 RMK A01 T10121105  RH  049%=      5-min Rain = 0
KAM1 112133Z 01024KT M01/M11 A3048 RMK A01 T10111107  RH  048%=      5-min Rain = 0
KAM1 112134Z 01023G28KT M01/M11 A3048 RMK A01 T10121109  RH  048%=      5-min Rain = 0
KAM1 112135Z 01020G25KT M01/M11 A3048 RMK A01 T10131110  RH  047%=      5-min Rain = 0
KAM1 112136Z 02024G30KT M01/M11 A3048 RMK A01 T10111107  RH  048%=      5-min Rain = 0
KAM1 112137Z 01021G26KT M01/M11 A3048 RMK A01 T10121109  RH  047%=      5-min Rain = 0
KAM1 112138Z 02026KT M01/M11 A3048 RMK A01 T10121110  RH  048%=      5-min Rain = 0
KAM1 112139Z 02024G30KT M01/M11 A3048 RMK A01 T10131110  RH  048%=      5-min Rain = 0
KAM1 112140Z 02023KT M01/M11 A3048 RMK A01 T10141112  RH  047%=      5-min Rain = 0
KAM1 112141Z 01022G27KT M02/M11 A3048 RMK A01 T10161113  RH  048%=      5-min Rain = 0
KAM1 112142Z 02022G28KT M02/M11 A3048 RMK A01 T10151112  RH  048%=      5-min Rain = 0
KAM1 112143Z 01025KT M01/M11 A3048 RMK A01 T10141111  RH  047%=      5-min Rain = 0
KAM1 112144Z 01019KT M02/M11 A3048 RMK A01 T10151114  RH  047%=      5-min Rain = 0
KAM1 112145Z 01015G20KT M01/M11 A3048 RMK A01 T10121110  RH  047%=      5-min Rain = 0
KAM1 112146Z 01018KT M01/M11 A3048 RMK A01 T10101109  RH  047%=      5-min Rain = 0
KAM1 112147Z 35022G27KT M01/M11 A3048 RMK A01 T10111113  RH  046%=      5-min Rain = 0
KAM1 112148Z 35019KT M02/M12 A3048 RMK A01 T10161119  RH  045%=      5-min Rain = 0
KAM1 112149Z 00023KT M02/M12 A3048 RMK A01 T10181120  RH  045%=      5-min Rain = 0
KAM1 112150Z 00022G27KT M02/M12 A3048 RMK A01 T10181122  RH  045%=      5-min Rain = 0
KAM1 112151Z 00020G26KT M02/M12 A3049 RMK A01 T10181122  RH  045%=      5-min Rain = 0
KAM1 112152Z 00023G29KT M02/M12 A3049 RMK A01 T10171123  RH  044%=      5-min Rain = 0
KAM1 112153Z 01024KT M02/M13 A3049 RMK A01 T10181125  RH  044%=      5-min Rain = 0
KAM1 112154Z 01026KT M02/M13 A3049 RMK A01 T10201129  RH  043%=      5-min Rain = 0
KAM1 112155Z 01023KT M02/M13 A3049 RMK A01 T10221130  RH  043%=      5-min Rain = 0
KAM1 112156Z 01024KT M02/M13 A3049 RMK A01 T10231130  RH  044%=      5-min Rain = 0
KAM1 112157Z 01021G26KT M02/M13 A3049 RMK A01 T10231130  RH  044%=      5-min Rain = 0
KAM1 112158Z 02018G25KT M02/M13 A3049 RMK A01 T10231129  RH  044%=      5-min Rain = 0
KAM1 112159Z 02022KT M02/M13 A3049 RMK A01 T10211129  RH  043%=      5-min Rain = 0
KAM1 112200Z 02023KT M02/M13 A3049 RMK A01 T10201130  RH  043%=      5-min Rain = 0
KAM1 112201Z 02022KT M02/M13 A3049 RMK A01 T10211132  RH  043%=      5-min Rain = 0
KAM1 112202Z 02023G28KT M02/M13 A3049 RMK A01 T10231134  RH  042%=      5-min Rain = 0
KAM1 112203Z 02022G27KT M02/M14 A3049 RMK A01 T10241135  RH  042%=      5-min Rain = 0
KAM1 112204Z 03018G23KT M03/M14 A3049 RMK A01 T10251135  RH  042%=      5-min Rain = 0
KAM1 112205Z 02016G21KT M02/M13 A3049 RMK A01 T10231133  RH  042%=      5-min Rain = 0
KAM1 112206Z 02018G24KT M02/M13 A3049 RMK A01 T10211132  RH  042%=      5-min Rain = 0
KAM1 112207Z 01019KT M02/M13 A305 RMK A01 T10211132  RH  042%=      5-min Rain = 0
KAM1 112208Z 02018G24KT M02/M13 A305 RMK A01 T10211133  RH  042%=      5-min Rain = 0
KAM1 112209Z 01021KT M02/M13 A305 RMK A01 T10221134  RH  042%=      5-min Rain = 0
KAM1 112210Z 01022KT M02/M13 A305 RMK A01 T10231134  RH  042%=      5-min Rain = 0
KAM1 112211Z 00018KT M02/M14 A305 RMK A01 T10241135  RH  042%=      5-min Rain = 0
KAM1 112212Z 01019KT M03/M14 A305 RMK A01 T10251135  RH  043%=      5-min Rain = 0
KAM1 112213Z 01018G23KT M03/M13 A305 RMK A01 T10251134  RH  043%=      5-min Rain = 0
KAM1 112214Z 01021KT M03/M13 A305 RMK A01 T10251134  RH  043%=      5-min Rain = 0
KAM1 112215Z 01021KT M03/M14 A305 RMK A01 T10251135  RH  042%=      5-min Rain = 0
KAM1 112216Z 01021KT M02/M14 A305 RMK A01 T10241135  RH  042%=      5-min Rain = 0
KAM1 112217Z 01022KT M02/M14 A305 RMK A01 T10241135  RH  042%=      5-min Rain = 0
KAM1 112218Z 01021KT M02/M14 A305 RMK A01 T10241135  RH  042%=      5-min Rain = 0
KAM1 112219Z 01020G26KT M02/M14 A305 RMK A01 T10241135  RH  042%=      5-min Rain = 0
KAM1 112220Z 01018KT M02/M14 A305 RMK A01 T10241135  RH  042%=      5-min Rain = 0
KAM1 112221Z 01018G24KT M02/M13 A305 RMK A01 T10241134  RH  043%=      5-min Rain = 0
KAM1 112222Z 01020G26KT M03/M14 A305 RMK A01 T10251135  RH  043%=      5-min Rain = 0
KAM1 112223Z 02022KT M03/M14 A305 RMK A01 T10261135  RH  043%=      5-min Rain = 0
KAM1 112224Z 02020KT M03/M14 A305 RMK A01 T10261136  RH  043%=      5-min Rain = 0
KAM1 112225Z 02019KT M03/M14 A305 RMK A01 T10271136  RH  043%=      5-min Rain = 0
KAM1 112226Z 02017KT M03/M13 A305 RMK A01 T10261134  RH  043%=      5-min Rain = 0
KAM1 112227Z 01015KT M03/M13 A305 RMK A01 T10251133  RH  043%=      5-min Rain = 0
KAM1 112228Z 01019G24KT M02/M13 A305 RMK A01 T10241132  RH  043%=      5-min Rain = 0
KAM1 112229Z 01019KT M02/M13 A305 RMK A01 T10241133  RH  043%=      5-min Rain = 0
KAM1 112230Z 01019G26KT M02/M13 A305 RMK A01 T10241133  RH  043%=      5-min Rain = 0
KAM1 112231Z 01021G26KT M02/M13 A305 RMK A01 T10241133  RH  043%=      5-min Rain = 0
KAM1 112232Z 01018KT M02/M13 A305 RMK A01 T10241134  RH  043%=      5-min Rain = 0
KAM1 112233Z 01018KT M02/M13 A305 RMK A01 T10241134  RH  043%=      5-min Rain = 0
KAM1 112234Z 01018G24KT M02/M13 A305 RMK A01 T10231133  RH  043%=      5-min Rain = 0
KAM1 112235Z 01017KT M02/M13 A305 RMK A01 T10221132  RH  043%=      5-min Rain = 0
KAM1 112236Z 02018G24KT M02/M13 A305 RMK A01 T10221131  RH  043%=      5-min Rain = 0
KAM1 112237Z 01020KT M02/M13 A305 RMK A01 T10221132  RH  043%=      5-min Rain = 0
KAM1 112238Z 01020KT M02/M13 A305 RMK A01 T10221132  RH  043%=      5-min Rain = 0
KAM1 112239Z 01020KT M02/M13 A305 RMK A01 T10231133  RH  043%=      5-min Rain = 0
KAM1 112240Z 01020KT M02/M13 A305 RMK A01 T10241133  RH  043%=      5-min Rain = 0
KAM1 112241Z 01019KT M03/M13 A305 RMK A01 T10251133  RH  043%=      5-min Rain = 0
KAM1 112242Z 00018KT M03/M13 A305 RMK A01 T10251132  RH  044%=      5-min Rain = 0
KAM1 112243Z 00019KT M03/M13 A305 RMK A01 T10251132  RH  044%=      5-min Rain = 0
KAM1 112244Z 01016KT M03/M13 A305 RMK A01 T10251131  RH  044%=      5-min Rain = 0
KAM1 112245Z 01015KT M03/M13 A305 RMK A01 T10251131  RH  044%=      5-min Rain = 0
KAM1 112246Z 00016G24KT M02/M13 A305 RMK A01 T10241130  RH  044%=      5-min Rain = 0
KAM1 112247Z 00020KT M02/M13 A305 RMK A01 T10241130  RH  044%=      5-min Rain = 0
KAM1 112248Z 01015KT M03/M13 A305 RMK A01 T10251131  RH  044%=      5-min Rain = 0
KAM1 112249Z 01014KT M03/M13 A305 RMK A01 T10251131  RH  044%=      5-min Rain = 0
KAM1 112250Z 01016G22KT M03/M13 A3051 RMK A01 T10251131  RH  044%=      5-min Rain = 0
KAM1 112251Z 01017KT M03/M13 A3051 RMK A01 T10261132  RH  044%=      5-min Rain = 0
KAM1 112252Z 01018KT M03/M13 A3051 RMK A01 T10271134  RH  044%=      5-min Rain = 0
KAM1 112253Z 00018KT M03/M14 A3051 RMK A01 T10281135  RH  044%=      5-min Rain = 0
KAM1 112254Z 01019KT M03/M14 A3051 RMK A01 T10291136  RH  044%=      5-min Rain = 0
KAM1 112255Z 01018G23KT M03/M14 A3051 RMK A01 T10301136  RH  044%=      5-min Rain = 0
KAM1 112256Z 01017G22KT M03/M14 A3051 RMK A01 T10301135  RH  044%=      5-min Rain = 0
KAM1 112257Z 00020G25KT M03/M14 A3051 RMK A01 T10291135  RH  044%=      5-min Rain = 0
KAM1 112258Z 01016G22KT M03/M14 A3051 RMK A01 T10291135  RH  044%=      5-min Rain = 0
KAM1 112259Z 02018G25KT M03/M14 A3051 RMK A01 T10291136  RH  044%=      5-min Rain = 0
KAM1 112300Z 01021G26KT M03/M14 A3051 RMK A01 T10291136  RH  044%=      5-min Rain = 0
KAM1 112301Z 01020KT M03/M14 A3051 RMK A01 T10291136  RH  043%=      5-min Rain = 0
KAM1 112302Z 01019KT M03/M14 A3052 RMK A01 T10291137  RH  043%=      5-min Rain = 0
KAM1 112303Z 02017KT M03/M14 A3052 RMK A01 T10291138  RH  043%=      5-min Rain = 0
KAM1 112304Z 01016KT M03/M14 A3052 RMK A01 T10301138  RH  043%=      5-min Rain = 0
KAM1 112305Z 01019KT M03/M14 A3052 RMK A01 T10301138  RH  043%=      5-min Rain = 0
KAM1 112306Z 01020KT M03/M14 A3052 RMK A01 T10301139  RH  043%=      5-min Rain = 0
KAM1 112307Z 01019KT M03/M14 A3052 RMK A01 T10301139  RH  043%=      5-min Rain = 0
KAM1 112308Z 02017G23KT M03/M14 A3052 RMK A01 T10301140  RH  043%=      5-min Rain = 0
KAM1 112309Z 01018G25KT M03/M14 A3052 RMK A01 T10301140  RH  042%=      5-min Rain = 0
KAM1 112310Z 01020KT M03/M14 A3052 RMK A01 T10301141  RH  042%=      5-min Rain = 0
KAM1 112311Z 01018KT M03/M14 A3052 RMK A01 T10301141  RH  042%=      5-min Rain = 0
KAM1 112312Z 00018G23KT M03/M14 A3052 RMK A01 T10301140  RH  042%=      5-min Rain = 0
KAM1 112313Z 01020KT M03/M14 A3052 RMK A01 T10311141  RH  042%=      5-min Rain = 0
KAM1 112314Z 01020KT M03/M14 A3052 RMK A01 T10311142  RH  042%=      5-min Rain = 0
KAM1 112315Z 01017KT M03/M14 A3052 RMK A01 T10321143  RH  042%=      5-min Rain = 0
KAM1 112316Z 01015G21KT M03/M14 A3052 RMK A01 T10321142  RH  042%=      5-min Rain = 0
KAM1 112317Z 01016KT M03/M14 A3052 RMK A01 T10331142  RH  043%=      5-min Rain = 0
KAM1 112318Z 01018KT M03/M14 A3052 RMK A01 T10331141  RH  043%=      5-min Rain = 0
KAM1 112319Z 00020KT M03/M14 A3052 RMK A01 T10331141  RH  043%=      5-min Rain = 0
KAM1 112320Z 01017G23KT M03/M14 A3052 RMK A01 T10331142  RH  043%=      5-min Rain = 0
KAM1 112321Z 01019KT M03/M14 A3052 RMK A01 T10331142  RH  043%=      5-min Rain = 0
KAM1 112322Z 00015G20KT M03/M14 A3052 RMK A01 T10331142  RH  043%=      5-min Rain = 0
KAM1 112323Z 01014KT M03/M14 A3053 RMK A01 T10331141  RH  043%=      5-min Rain = 0
KAM1 112324Z 01017KT M03/M14 A3053 RMK A01 T10341141  RH  043%=      5-min Rain = 0
KAM1 112325Z 01018KT M03/M14 A3053 RMK A01 T10341141  RH  043%=      5-min Rain = 0
KAM1 112326Z 01016KT M03/M14 A3053 RMK A01 T10341141  RH  043%=      5-min Rain = 0
KAM1 112327Z 01019KT M03/M14 A3053 RMK A01 T10341141  RH  043%=      5-min Rain = 0
KAM1 112328Z 01016G22KT M03/M14 A3053 RMK A01 T10341141  RH  043%=      5-min Rain = 0
KAM1 112329Z 01017KT M03/M14 A3053 RMK A01 T10341142  RH  043%=      5-min Rain = 0
KAM1 112330Z 01018KT M03/M14 A3053 RMK A01 T10341142  RH  043%=      5-min Rain = 0
KAM1 112331Z 01016KT M03/M14 A3053 RMK A01 T10341141  RH  043%=      5-min Rain = 0
KAM1 112332Z 01016KT M04/M14 A3054 RMK A01 T10351142  RH  043%=      5-min Rain = 0
KAM1 112333Z 01016KT M04/M14 A3054 RMK A01 T10351142  RH  043%=      5-min Rain = 0
KAM1 112334Z 01015KT M04/M14 A3054 RMK A01 T10351143  RH  043%=      5-min Rain = 0
KAM1 112335Z 01015KT M04/M14 A3054 RMK A01 T10351143  RH  043%=      5-min Rain = 0
KAM1 112336Z 02014KT M04/M14 A3054 RMK A01 T10351143  RH  043%=      5-min Rain = 0
KAM1 112337Z 01011KT M04/M14 A3054 RMK A01 T10361143  RH  043%=      5-min Rain = 0
KAM1 112338Z 01013KT M04/M14 A3054 RMK A01 T10361143  RH  043%=      5-min Rain = 0
KAM1 112339Z 01013KT M04/M14 A3054 RMK A01 T10371143  RH  044%=      5-min Rain = 0
KAM1 112340Z 01015KT M04/M14 A3054 RMK A01 T10371143  RH  044%=      5-min Rain = 0
KAM1 112341Z 01012KT M04/M14 A3054 RMK A01 T10371143  RH  044%=      5-min Rain = 0
KAM1 112342Z 00015KT M04/M14 A3054 RMK A01 T10371143  RH  044%=      5-min Rain = 0
KAM1 112343Z 01013KT M04/M14 A3054 RMK A01 T10371143  RH  044%=      5-min Rain = 0
KAM1 112344Z 01013KT M04/M14 A3054 RMK A01 T10371144  RH  044%=      5-min Rain = 0
KAM1 112345Z 01012KT M04/M14 A3054 RMK A01 T10381143  RH  044%=      5-min Rain = 0
KAM1 112346Z 01010KT M04/M14 A3055 RMK A01 T10381143  RH  044%=      5-min Rain = 0
KAM1 112347Z 02014KT M04/M14 A3055 RMK A01 T10381143  RH  044%=      5-min Rain = 0
KAM1 112348Z 01012KT M04/M14 A3055 RMK A01 T10381144  RH  044%=      5-min Rain = 0
KAM1 112349Z 01016KT M04/M14 A3055 RMK A01 T10381144  RH  044%=      5-min Rain = 0
KAM1 112350Z 01015KT M04/M15 A3055 RMK A01 T10381145  RH  043%=      5-min Rain = 0
KAM1 112351Z 01015KT M04/M15 A3055 RMK A01 T10381145  RH  043%=      5-min Rain = 0
KAM1 112352Z 01014G20KT M04/M15 A3055 RMK A01 T10381146  RH  043%=      5-min Rain = 0
KAM1 112353Z 01014KT M04/M15 A3055 RMK A01 T10381146  RH  043%=      5-min Rain = 0
KAM1 112354Z 01014KT M04/M15 A3055 RMK A01 T10381146  RH  043%=      5-min Rain = 0
KAM1 112355Z 01017KT M04/M15 A3055 RMK A01 T10381146  RH  043%=      5-min Rain = 0
KAM1 112356Z 01015KT M04/M15 A3055 RMK A01 T10381147  RH  043%=      5-min Rain = 0
KAM1 112357Z 01012KT M04/M15 A3055 RMK A01 T10381148  RH  042%=      5-min Rain = 0
KAM1 112358Z 01015KT M04/M15 A3055 RMK A01 T10391148  RH  042%=      5-min Rain = 0
KAM1 112359Z 01014KT M04/M15 A3055 RMK A01 T10401148  RH  043%=      5-min Rain = 0
KAM1 120000Z 01016KT M04/M15 A3055 RMK A01 T10391148  RH  043%=      5-min Rain = 0
KAM1 120001Z 01012KT M04/M15 A3055 RMK A01 T10391148  RH  043%=      5-min Rain = 0
KAM1 120002Z 00012KT M04/M15 A3055 RMK A01 T10391148  RH  043%=      5-min Rain = 0
KAM1 120003Z 01013KT M04/M15 A3055 RMK A01 T10401148  RH  043%=      5-min Rain = 0
KAM1 120004Z 01013G18KT M04/M15 A3056 RMK A01 T10401148  RH  043%=      5-min Rain = 0
KAM1 120005Z 01013KT M04/M15 A3056 RMK A01 T10401147  RH  043%=      5-min Rain = 0
KAM1 120006Z 01014KT M04/M15 A3056 RMK A01 T10401147  RH  043%=      5-min Rain = 0
KAM1 120007Z 00014KT M04/M15 A3056 RMK A01 T10401147  RH  043%=      5-min Rain = 0
KAM1 120008Z 01015KT M04/M15 A3056 RMK A01 T10401147  RH  043%=      5-min Rain = 0
KAM1 120009Z 01012KT M04/M15 A3056 RMK A01 T10401147  RH  043%=      5-min Rain = 0
KAM1 120010Z 01013KT M04/M15 A3056 RMK A01 T10401147  RH  043%=      5-min Rain = 0
KAM1 120011Z 01014KT M04/M15 A3056 RMK A01 T10411147  RH  043%=      5-min Rain = 0
KAM1 120012Z 01015KT M04/M15 A3056 RMK A01 T10411147  RH  043%=      5-min Rain = 0
KAM1 120013Z 00013KT M04/M15 A3056 RMK A01 T10411148  RH  043%=      5-min Rain = 0
KAM1 120014Z 01015G20KT M04/M15 A3056 RMK A01 T10411148  RH  043%=      5-min Rain = 0
KAM1 120015Z 01014KT M04/M15 A3056 RMK A01 T10401147  RH  043%=      5-min Rain = 0
KAM1 120016Z 01014KT M04/M15 A3056 RMK A01 T10411148  RH  043%=      5-min Rain = 0
KAM1 120017Z 00013KT M04/M15 A3056 RMK A01 T10411148  RH  043%=      5-min Rain = 0
KAM1 120018Z 01013KT M04/M15 A3056 RMK A01 T10421148  RH  043%=      5-min Rain = 0
KAM1 120019Z 01014KT M04/M15 A3056 RMK A01 T10421148  RH  043%=      5-min Rain = 0
KAM1 120020Z 01012KT M04/M15 A3056 RMK A01 T10421149  RH  043%=      5-min Rain = 0
KAM1 120021Z 00013KT M04/M15 A3056 RMK A01 T10421149  RH  043%=      5-min Rain = 0
KAM1 120022Z 01011KT M04/M15 A3056 RMK A01 T10421148  RH  043%=      5-min Rain = 0
KAM1 120023Z 00012KT M04/M15 A3056 RMK A01 T10421148  RH  043%=      5-min Rain = 0
KAM1 120024Z 01014KT M04/M15 A3056 RMK A01 T10421148  RH  044%=      5-min Rain = 0
KAM1 120025Z 01012KT M04/M15 A3056 RMK A01 T10421148  RH  044%=      5-min Rain = 0
KAM1 120026Z 00011KT M04/M15 A3056 RMK A01 T10431148  RH  044%=      5-min Rain = 0
KAM1 120027Z 01011KT M04/M15 A3056 RMK A01 T10431148  RH  044%=      5-min Rain = 0
KAM1 120028Z 02010KT M04/M15 A3056 RMK A01 T10441148  RH  044%=      5-min Rain = 0
KAM1 120029Z 01009KT M04/M15 A3056 RMK A01 T10441148  RH  044%=      5-min Rain = 0
KAM1 120030Z 02009KT M05/M15 A3056 RMK A01 T10451147  RH  045%=      5-min Rain = 0
KAM1 120031Z 02011KT M05/M15 A3056 RMK A01 T10461148  RH  045%=      5-min Rain = 0
KAM1 120032Z 01012KT M05/M15 A3056 RMK A01 T10461148  RH  045%=      5-min Rain = 0
KAM1 120033Z 02012KT M05/M15 A3056 RMK A01 T10461147  RH  045%=      5-min Rain = 0
KAM1 120034Z 01012KT M05/M15 A3056 RMK A01 T10461147  RH  045%=      5-min Rain = 0
KAM1 120035Z 01014KT M05/M15 A3056 RMK A01 T10461147  RH  045%=      5-min Rain = 0
KAM1 120036Z 01013KT M05/M15 A3056 RMK A01 T10461148  RH  045%=      5-min Rain = 0
KAM1 120037Z 01010KT M05/M15 A3056 RMK A01 T10461148  RH  045%=      5-min Rain = 0
KAM1 120038Z 01013KT M05/M15 A3056 RMK A01 T10461148  RH  045%=      5-min Rain = 0
KAM1 120039Z 01013KT M05/M15 A3056 RMK A01 T10461148  RH  045%=      5-min Rain = 0
KAM1 120040Z 01013KT M05/M15 A3056 RMK A01 T10471148  RH  045%=      5-min Rain = 0
KAM1 120041Z 01012KT M05/M15 A3056 RMK A01 T10471148  RH  045%=      5-min Rain = 0
KAM1 120042Z 02010KT M05/M15 A3056 RMK A01 T10471148  RH  045%=      5-min Rain = 0
KAM1 120043Z 01012KT M05/M15 A3056 RMK A01 T10471148  RH  045%=      5-min Rain = 0
KAM1 120044Z 01012KT M05/M15 A3056 RMK A01 T10471148  RH  045%=      5-min Rain = 0
KAM1 120045Z 02012KT M05/M15 A3056 RMK A01 T10481148  RH  045%=      5-min Rain = 0
KAM1 120046Z 02011KT M05/M15 A3056 RMK A01 T10481148  RH  045%=      5-min Rain = 0
KAM1 120047Z 02012KT M05/M15 A3056 RMK A01 T10471148  RH  045%=      5-min Rain = 0
KAM1 120048Z 02009KT M05/M15 A3056 RMK A01 T10471148  RH  045%=      5-min Rain = 0
KAM1 120049Z 01011KT M05/M15 A3057 RMK A01 T10481148  RH  045%=      5-min Rain = 0
KAM1 120050Z 01010KT M05/M15 A3057 RMK A01 T10491148  RH  046%=      5-min Rain = 0
KAM1 120051Z 02009KT M05/M15 A3057 RMK A01 T10491148  RH  046%=      5-min Rain = 0
KAM1 120052Z 02010KT M05/M15 A3057 RMK A01 T10501148  RH  046%=      5-min Rain = 0
KAM1 120053Z 02010KT M05/M15 A3057 RMK A01 T10501148  RH  046%=      5-min Rain = 0
KAM1 120054Z 02011KT M05/M15 A3057 RMK A01 T10501148  RH  046%=      5-min Rain = 0
KAM1 120055Z 02009KT M05/M15 A3057 RMK A01 T10501148  RH  046%=      5-min Rain = 0
KAM1 120056Z 02010KT M05/M15 A3057 RMK A01 T10501148  RH  046%=      5-min Rain = 0
KAM1 120057Z 02010KT M05/M15 A3057 RMK A01 T10501148  RH  046%=      5-min Rain = 0
KAM1 120058Z 02012KT M05/M15 A3057 RMK A01 T10511148  RH  046%=      5-min Rain = 0
KAM1 120059Z 01009KT M05/M15 A3057 RMK A01 T10511148  RH  046%=      5-min Rain = 0
KAM1 120100Z 01009KT M05/M15 A3057 RMK A01 T10511148  RH  047%=      5-min Rain = 0
KAM1 120101Z 01008KT M05/M15 A3057 RMK A01 T10521149  RH  047%=      5-min Rain = 0
KAM1 120102Z 02010KT M05/M15 A3057 RMK A01 T10531148  RH  047%=      5-min Rain = 0
KAM1 120103Z 02010KT M05/M15 A3057 RMK A01 T10531148  RH  047%=      5-min Rain = 0
KAM1 120104Z 02010KT M05/M15 A3057 RMK A01 T10531148  RH  047%=      5-min Rain = 0
KAM1 120105Z 02010KT M05/M15 A3057 RMK A01 T10531148  RH  047%=      5-min Rain = 0
KAM1 120106Z 02011KT M05/M15 A3057 RMK A01 T10531148  RH  047%=      5-min Rain = 0
KAM1 120107Z 02010KT M05/M15 A3057 RMK A01 T10531148  RH  047%=      5-min Rain = 0
KAM1 120108Z 01010KT M05/M15 A3057 RMK A01 T10531148  RH  047%=      5-min Rain = 0
KAM1 120109Z 02010KT M05/M15 A3057 RMK A01 T10531148  RH  047%=      5-min Rain = 0
KAM1 120110Z 02009KT M05/M15 A3057 RMK A01 T10541148  RH  048%=      5-min Rain = 0
KAM1 120111Z 01009KT M05/M15 A3057 RMK A01 T10541148  RH  048%=      5-min Rain = 0
KAM1 120112Z 01009KT M05/M15 A3057 RMK A01 T10541148  RH  048%=      5-min Rain = 0
KAM1 120113Z 01010KT M05/M15 A3057 RMK A01 T10541147  RH  048%=      5-min Rain = 0
KAM1 120114Z 01009KT M05/M15 A3057 RMK A01 T10541147  RH  048%=      5-min Rain = 0
KAM1 120115Z 02010KT M05/M15 A3057 RMK A01 T10541147  RH  048%=      5-min Rain = 0
KAM1 120116Z 02011KT M05/M15 A3057 RMK A01 T10541147  RH  048%=      5-min Rain = 0
KAM1 120117Z 02010KT M05/M15 A3057 RMK A01 T10541147  RH  048%=      5-min Rain = 0
KAM1 120118Z 01009KT M05/M15 A3057 RMK A01 T10541147  RH  048%=      5-min Rain = 0
KAM1 120119Z 02009KT M05/M15 A3057 RMK A01 T10541147  RH  048%=      5-min Rain = 0
KAM1 120120Z 01009KT M06/M15 A3057 RMK A01 T10551147  RH  048%=      5-min Rain = 0
KAM1 120121Z 02008KT M06/M15 A3057 RMK A01 T10551147  RH  048%=      5-min Rain = 0
KAM1 120122Z 02009KT M06/M15 A3057 RMK A01 T10551147  RH  048%=      5-min Rain = 0
KAM1 120123Z 01009KT M06/M15 A3057 RMK A01 T10551146  RH  048%=      5-min Rain = 0
KAM1 120124Z 02009KT M06/M15 A3057 RMK A01 T10551146  RH  049%=      5-min Rain = 0
KAM1 120125Z 02008KT M06/M15 A3057 RMK A01 T10551146  RH  049%=      5-min Rain = 0
KAM1 120126Z 01009KT M06/M15 A3057 RMK A01 T10561146  RH  049%=      5-min Rain = 0
KAM1 120127Z 01010KT M06/M15 A3057 RMK A01 T10561146  RH  049%=      5-min Rain = 0
KAM1 120128Z 01008KT M06/M15 A3057 RMK A01 T10551146  RH  049%=      5-min Rain = 0
KAM1 120129Z 01008G13KT M06/M15 A3057 RMK A01 T10551146  RH  049%=      5-min Rain = 0
KAM1 120130Z 01008KT M06/M15 A3058 RMK A01 T10551145  RH  049%=      5-min Rain = 0
KAM1 120131Z 01009KT M06/M15 A3058 RMK A01 T10561145  RH  049%=      5-min Rain = 0
KAM1 120132Z 01010KT M06/M15 A3058 RMK A01 T10561145  RH  049%=      5-min Rain = 0
KAM1 120133Z 01010KT M06/M15 A3058 RMK A01 T10561145  RH  049%=      5-min Rain = 0
KAM1 120134Z 01009KT M06/M15 A3058 RMK A01 T10561145  RH  049%=      5-min Rain = 0
KAM1 120135Z 01009KT M06/M15 A3058 RMK A01 T10561145  RH  049%=      5-min Rain = 0
KAM1 120136Z 01009KT M06/M15 A3058 RMK A01 T10561145  RH  050%=      5-min Rain = 0
KAM1 120137Z 01010KT M06/M14 A3058 RMK A01 T10561144  RH  050%=      5-min Rain = 0
KAM1 120138Z 01008KT M06/M14 A3058 RMK A01 T10561143  RH  050%=      5-min Rain = 0
KAM1 120139Z 01007KT M06/M14 A3058 RMK A01 T10561143  RH  050%=      5-min Rain = 0
KAM1 120140Z 01007KT M06/M14 A3058 RMK A01 T10571143  RH  051%=      5-min Rain = 0
KAM1 120141Z 01006KT M06/M14 A3058 RMK A01 T10581143  RH  051%=      5-min Rain = 0
KAM1 120142Z 01005KT M06/M14 A3058 RMK A01 T10591143  RH  051%=      5-min Rain = 0
KAM1 120143Z 01007KT M06/M14 A3058 RMK A01 T10591143  RH  052%=      5-min Rain = 0
KAM1 120144Z 01008KT M06/M14 A3059 RMK A01 T10591142  RH  052%=      5-min Rain = 0
KAM1 120145Z 01008KT M06/M14 A3059 RMK A01 T10581141  RH  052%=      5-min Rain = 0
KAM1 120146Z 01009KT M06/M14 A3059 RMK A01 T10581140  RH  052%=      5-min Rain = 0
KAM1 120147Z 01008KT M06/M14 A3059 RMK A01 T10571140  RH  052%=      5-min Rain = 0
KAM1 120148Z 01008KT M06/M14 A3059 RMK A01 T10571140  RH  052%=      5-min Rain = 0
KAM1 120149Z 01008KT M06/M14 A3059 RMK A01 T10571140  RH  052%=      5-min Rain = 0
KAM1 120150Z 01007KT M06/M14 A3059 RMK A01 T10571140  RH  052%=      5-min Rain = 0
KAM1 120151Z 01008KT M06/M14 A3059 RMK A01 T10571140  RH  052%=      5-min Rain = 0
KAM1 120152Z 01008KT M06/M14 A3059 RMK A01 T10571140  RH  052%=      5-min Rain = 0
KAM1 120153Z 01008KT M06/M14 A3059 RMK A01 T10581140  RH  052%=      5-min Rain = 0
KAM1 120154Z 01009KT M06/M14 A3059 RMK A01 T10581140  RH  052%=      5-min Rain = 0
KAM1 120155Z 01007KT M06/M14 A3059 RMK A01 T10591141  RH  052%=      5-min Rain = 0
KAM1 120156Z 01008KT M06/M14 A3059 RMK A01 T10581140  RH  052%=      5-min Rain = 0
KAM1 120157Z 01007KT M06/M14 A3059 RMK A01 T10591140  RH  053%=      5-min Rain = 0
KAM1 120158Z 01009KT M06/M14 A3059 RMK A01 T10591140  RH  053%=      5-min Rain = 0
KAM1 120159Z 01007KT M06/M14 A3059 RMK A01 T10591140  RH  053%=      5-min Rain = 0
KAM1 120200Z 01008KT M06/M14 A3059 RMK A01 T10591140  RH  053%=      5-min Rain = 0
KAM1 120201Z 01007KT M06/M14 A3059 RMK A01 T10591140  RH  053%=      5-min Rain = 0
KAM1 120202Z 01007KT M06/M14 A3059 RMK A01 T10591140  RH  053%=      5-min Rain = 0
KAM1 120203Z 01008KT M06/M14 A3059 RMK A01 T10591140  RH  053%=      5-min Rain = 0
KAM1 120204Z 01007KT M06/M14 A3059 RMK A01 T10601140  RH  053%=      5-min Rain = 0
KAM1 120205Z 01008KT M06/M14 A3059 RMK A01 T10601140  RH  053%=      5-min Rain = 0
KAM1 120206Z 01008KT M06/M14 A3059 RMK A01 T10601140  RH  053%=      5-min Rain = 0
KAM1 120207Z 01008KT M06/M14 A3059 RMK A01 T10601139  RH  054%=      5-min Rain = 0
KAM1 120208Z 01008KT M06/M14 A3059 RMK A01 T10601139  RH  054%=      5-min Rain = 0
KAM1 120209Z 01008KT M06/M14 A3059 RMK A01 T10611139  RH  054%=      5-min Rain = 0
KAM1 120210Z 02007KT M06/M14 A3059 RMK A01 T10611139  RH  054%=      5-min Rain = 0
KAM1 120211Z 02008KT M06/M14 A3059 RMK A01 T10611140  RH  054%=      5-min Rain = 0
KAM1 120212Z 02009KT M06/M14 A3059 RMK A01 T10621140  RH  054%=      5-min Rain = 0
KAM1 120213Z 01011KT M06/M14 A3059 RMK A01 T10611140  RH  054%=      5-min Rain = 0
KAM1 120214Z 02010KT M06/M14 A3059 RMK A01 T10611140  RH  054%=      5-min Rain = 0
KAM1 120215Z 01010KT M06/M14 A3059 RMK A01 T10611140  RH  053%=      5-min Rain = 0
KAM1 120216Z 01011KT M06/M14 A3059 RMK A01 T10601141  RH  053%=      5-min Rain = 0
KAM1 120217Z 02011KT M06/M14 A3059 RMK A01 T10601141  RH  053%=      5-min Rain = 0
KAM1 120218Z 01010KT M06/M14 A3059 RMK A01 T10601141  RH  052%=      5-min Rain = 0
KAM1 120219Z 01010KT M06/M14 A3059 RMK A01 T10591142  RH  052%=      5-min Rain = 0
KAM1 120220Z 02010KT M06/M14 A3059 RMK A01 T10601142  RH  052%=      5-min Rain = 0
KAM1 120221Z 01009KT M06/M14 A3059 RMK A01 T10601142  RH  052%=      5-min Rain = 0
KAM1 120222Z 01011KT M06/M14 A3059 RMK A01 T10601142  RH  053%=      5-min Rain = 0
KAM1 120223Z 01012KT M06/M14 A3059 RMK A01 T10611142  RH  053%=      5-min Rain = 0
KAM1 120224Z 01012KT M06/M14 A3059 RMK A01 T10601142  RH  052%=      5-min Rain = 0
KAM1 120225Z 01011KT M06/M14 A3059 RMK A01 T10601142  RH  052%=      5-min Rain = 0
KAM1 120226Z 01010KT M06/M14 A3059 RMK A01 T10601142  RH  052%=      5-min Rain = 0
KAM1 120227Z 02010KT M06/M14 A3059 RMK A01 T10611143  RH  052%=      5-min Rain = 0
KAM1 120228Z 01010KT M06/M14 A306 RMK A01 T10611143  RH  052%=      5-min Rain = 0
KAM1 120229Z 02010KT M06/M14 A306 RMK A01 T10621143  RH  053%=      5-min Rain = 0
KAM1 120230Z 01009KT M06/M14 A306 RMK A01 T10621143  RH  053%=      5-min Rain = 0
KAM1 120231Z 02009KT M06/M14 A306 RMK A01 T10621143  RH  053%=      5-min Rain = 0
KAM1 120232Z 01009KT M06/M14 A306 RMK A01 T10631143  RH  053%=      5-min Rain = 0
KAM1 120233Z 01009KT M06/M14 A306 RMK A01 T10631143  RH  053%=      5-min Rain = 0
KAM1 120234Z 01010KT M06/M14 A306 RMK A01 T10631143  RH  053%=      5-min Rain = 0
KAM1 120235Z 01009KT M06/M14 A306 RMK A01 T10641143  RH  053%=      5-min Rain = 0
KAM1 120236Z 02009KT M06/M14 A306 RMK A01 T10641143  RH  053%=      5-min Rain = 0
KAM1 120237Z 02010KT M06/M14 A306 RMK A01 T10641143  RH  054%=      5-min Rain = 0
KAM1 120238Z 02008KT M06/M14 A306 RMK A01 T10641143  RH  054%=      5-min Rain = 0
KAM1 120239Z 02009KT M07/M14 A306 RMK A01 T10651143  RH  054%=      5-min Rain = 0
KAM1 120240Z 02009KT M07/M14 A306 RMK A01 T10651143  RH  054%=      5-min Rain = 0
KAM1 120241Z 02009KT M07/M14 A306 RMK A01 T10651143  RH  054%=      5-min Rain = 0
KAM1 120242Z 01011KT M07/M14 A306 RMK A01 T10651143  RH  054%=      5-min Rain = 0
KAM1 120243Z 01010KT M07/M14 A306 RMK A01 T10651143  RH  054%=      5-min Rain = 0
KAM1 120244Z 01011KT M07/M14 A306 RMK A01 T10651143  RH  054%=      5-min Rain = 0
KAM1 120245Z 01010KT M07/M14 A306 RMK A01 T10651143  RH  054%=      5-min Rain = 0
KAM1 120246Z 01009KT M07/M14 A306 RMK A01 T10651144  RH  054%=      5-min Rain = 0
KAM1 120247Z 01010KT M07/M14 A306 RMK A01 T10651143  RH  054%=      5-min Rain = 0
KAM1 120248Z 01010KT M07/M14 A306 RMK A01 T10651143  RH  054%=      5-min Rain = 0
KAM1 120249Z 01010KT M07/M14 A306 RMK A01 T10651144  RH  054%=      5-min Rain = 0
KAM1 120250Z 01012KT M07/M14 A306 RMK A01 T10651144  RH  054%=      5-min Rain = 0
KAM1 120251Z 02011KT M07/M14 A306 RMK A01 T10651144  RH  054%=      5-min Rain = 0
KAM1 120252Z 02009KT M07/M14 A3059 RMK A01 T10651144  RH  054%=      5-min Rain = 0
KAM1 120253Z 02010KT M07/M14 A3059 RMK A01 T10651144  RH  054%=      5-min Rain = 0
KAM1 120254Z 01010KT M07/M14 A3059 RMK A01 T10661144  RH  054%=      5-min Rain = 0
KAM1 120255Z 01011KT M07/M14 A3059 RMK A01 T10661144  RH  054%=      5-min Rain = 0
KAM1 120256Z 01011KT M07/M14 A3059 RMK A01 T10661144  RH  054%=      5-min Rain = 0
KAM1 120257Z 01011KT M07/M14 A306 RMK A01 T10661144  RH  054%=      5-min Rain = 0
KAM1 120258Z 01010KT M07/M14 A306 RMK A01 T10661144  RH  054%=      5-min Rain = 0
KAM1 120259Z 01011KT M07/M15 A306 RMK A01 T10661145  RH  054%=      5-min Rain = 0
KAM1 120300Z 01010KT M07/M15 A306 RMK A01 T10671145  RH  054%=      5-min Rain = 0
KAM1 120301Z 01010KT M07/M14 A306 RMK A01 T10671144  RH  054%=      5-min Rain = 0
KAM1 120302Z 02011KT M07/M14 A306 RMK A01 T10671144  RH  054%=      5-min Rain = 0
KAM1 120303Z 01010KT M07/M14 A3059 RMK A01 T10671144  RH  054%=      5-min Rain = 0
KAM1 120304Z 01010KT M07/M15 A3059 RMK A01 T10671145  RH  054%=      5-min Rain = 0
KAM1 120305Z 01010KT M07/M15 A3059 RMK A01 T10681145  RH  054%=      5-min Rain = 0
KAM1 120306Z 01010KT M07/M15 A3059 RMK A01 T10681145  RH  054%=      5-min Rain = 0
KAM1 120307Z 01009KT M07/M15 A3059 RMK A01 T10681145  RH  054%=      5-min Rain = 0
KAM1 120308Z 01010KT M07/M15 A306 RMK A01 T10681145  RH  054%=      5-min Rain = 0
KAM1 120309Z 01009KT M07/M15 A306 RMK A01 T10681145  RH  054%=      5-min Rain = 0
KAM1 120310Z 01010KT M07/M15 A306 RMK A01 T10681145  RH  054%=      5-min Rain = 0
KAM1 120311Z 01011KT M07/M15 A306 RMK A01 T10681145  RH  054%=      5-min Rain = 0
KAM1 120312Z 01010KT M07/M15 A306 RMK A01 T10681145  RH  054%=      5-min Rain = 0
KAM1 120313Z 01011KT M07/M15 A306 RMK A01 T10681145  RH  054%=      5-min Rain = 0
KAM1 120314Z 02011KT M07/M15 A306 RMK A01 T10681145  RH  054%=      5-min Rain = 0
KAM1 120315Z 01011KT M07/M15 A306 RMK A01 T10671145  RH  054%=      5-min Rain = 0
KAM1 120316Z 01012KT M07/M15 A3059 RMK A01 T10681146  RH  054%=      5-min Rain = 0
KAM1 120317Z 01012KT M07/M15 A3059 RMK A01 T10681145  RH  054%=      5-min Rain = 0
KAM1 120318Z 01011KT M07/M15 A3059 RMK A01 T10681146  RH  054%=      5-min Rain = 0
KAM1 120319Z 02011KT M07/M15 A3059 RMK A01 T10681146  RH  054%=      5-min Rain = 0
KAM1 120320Z 01013KT M07/M15 A3059 RMK A01 T10681146  RH  054%=      5-min Rain = 0
KAM1 120321Z 01010KT M07/M15 A3059 RMK A01 T10681146  RH  054%=      5-min Rain = 0
KAM1 120322Z 01010KT M07/M15 A3059 RMK A01 T10681146  RH  054%=      5-min Rain = 0
KAM1 120323Z 01011KT M07/M15 A306 RMK A01 T10691146  RH  054%=      5-min Rain = 0
KAM1 120324Z 01011KT M07/M15 A3059 RMK A01 T10691146  RH  054%=      5-min Rain = 0
KAM1 120325Z 01012KT M07/M15 A306 RMK A01 T10691146  RH  054%=      5-min Rain = 0
KAM1 120326Z 01010KT M07/M15 A3059 RMK A01 T10691147  RH  054%=      5-min Rain = 0
KAM1 120327Z 01011KT M07/M15 A306 RMK A01 T10691146  RH  054%=      5-min Rain = 0
KAM1 120328Z 01012KT M07/M15 A306 RMK A01 T10691147  RH  054%=      5-min Rain = 0
KAM1 120329Z 01010KT M07/M15 A306 RMK A01 T10691146  RH  054%=      5-min Rain = 0
KAM1 120330Z 01010KT M07/M15 A306 RMK A01 T10691146  RH  054%=      5-min Rain = 0
KAM1 120331Z 01010KT M07/M15 A306 RMK A01 T10701147  RH  054%=      5-min Rain = 0
KAM1 120332Z 01011KT M07/M15 A3059 RMK A01 T10701146  RH  055%=      5-min Rain = 0
KAM1 120333Z 01011KT M07/M15 A306 RMK A01 T10711147  RH  055%=      5-min Rain = 0
KAM1 120334Z 01011KT M07/M15 A306 RMK A01 T10711146  RH  055%=      5-min Rain = 0
KAM1 120335Z 02012KT M07/M15 A306 RMK A01 T10711146  RH  055%=      5-min Rain = 0
KAM1 120336Z 01012KT M07/M15 A3059 RMK A01 T10711146  RH  055%=      5-min Rain = 0
KAM1 120337Z 01012KT M07/M15 A3059 RMK A01 T10711147  RH  055%=      5-min Rain = 0
KAM1 120338Z 01011KT M07/M15 A3059 RMK A01 T10701146  RH  055%=      5-min Rain = 0
KAM1 120339Z 01012KT M07/M15 A3059 RMK A01 T10701146  RH  055%=      5-min Rain = 0
KAM1 120340Z 01011KT M07/M15 A3059 RMK A01 T10701147  RH  055%=      5-min Rain = 0
KAM1 120341Z 01011KT M07/M15 A3059 RMK A01 T10711147  RH  055%=      5-min Rain = 0
KAM1 120342Z 01010KT M07/M15 A3059 RMK A01 T10711147  RH  055%=      5-min Rain = 0
KAM1 120343Z 01013KT M07/M15 A3059 RMK A01 T10711147  RH  055%=      5-min Rain = 0
KAM1 120344Z 01011KT M07/M15 A3059 RMK A01 T10721147  RH  055%=      5-min Rain = 0
KAM1 120345Z 01012KT M07/M15 A3059 RMK A01 T10721147  RH  055%=      5-min Rain = 0
KAM1 120346Z 01011KT M07/M15 A3059 RMK A01 T10721147  RH  055%=      5-min Rain = 0
KAM1 120347Z 01011KT M07/M15 A306 RMK A01 T10721147  RH  055%=      5-min Rain = 0
KAM1 120348Z 01012KT M07/M15 A306 RMK A01 T10721147  RH  055%=      5-min Rain = 0
KAM1 120349Z 01011KT M07/M15 A306 RMK A01 T10721147  RH  055%=      5-min Rain = 0
KAM1 120350Z 02012KT M07/M15 A306 RMK A01 T10721147  RH  055%=      5-min Rain = 0
KAM1 120351Z 01012KT M07/M15 A306 RMK A01 T10731147  RH  055%=      5-min Rain = 0
KAM1 120352Z 02012KT M07/M15 A306 RMK A01 T10731147  RH  055%=      5-min Rain = 0
KAM1 120353Z 01011KT M07/M15 A306 RMK A01 T10731147  RH  055%=      5-min Rain = 0
KAM1 120354Z 02012KT M07/M15 A306 RMK A01 T10731147  RH  055%=      5-min Rain = 0
KAM1 120355Z 02012KT M07/M15 A306 RMK A01 T10741147  RH  056%=      5-min Rain = 0
KAM1 120356Z 02011KT M07/M15 A306 RMK A01 T10731147  RH  056%=      5-min Rain = 0
KAM1 120357Z 01011KT M07/M15 A306 RMK A01 T10731147  RH  056%=      5-min Rain = 0
KAM1 120358Z 01012KT M07/M15 A306 RMK A01 T10741147  RH  056%=      5-min Rain = 0
KAM1 120359Z 02010KT M07/M15 A306 RMK A01 T10741147  RH  056%=      5-min Rain = 0
KAM1 120400Z 01009KT M07/M15 A306 RMK A01 T10741147  RH  056%=      5-min Rain = 0
KAM1 120401Z 01010KT M07/M15 A306 RMK A01 T10741147  RH  056%=      5-min Rain = 0
KAM1 120402Z 01010KT M08/M15 A306 RMK A01 T10751147  RH  056%=      5-min Rain = 0
KAM1 120403Z 01011KT M08/M15 A306 RMK A01 T10751148  RH  056%=      5-min Rain = 0
KAM1 120404Z 01010KT M08/M15 A306 RMK A01 T10761147  RH  056%=      5-min Rain = 0
KAM1 120405Z 01010KT M08/M15 A306 RMK A01 T10761147  RH  057%=      5-min Rain = 0
KAM1 120406Z 01009KT M08/M15 A306 RMK A01 T10761147  RH  057%=      5-min Rain = 0
KAM1 120407Z 02009KT M08/M15 A306 RMK A01 T10761147  RH  057%=      5-min Rain = 0
KAM1 120408Z 01008KT M08/M15 A306 RMK A01 T10771147  RH  057%=      5-min Rain = 0
KAM1 120409Z 01008KT M08/M15 A306 RMK A01 T10771148  RH  057%=      5-min Rain = 0
KAM1 120410Z 02009KT M08/M15 A306 RMK A01 T10781148  RH  057%=      5-min Rain = 0
KAM1 120411Z 01008KT M08/M15 A306 RMK A01 T10781148  RH  058%=      5-min Rain = 0
KAM1 120412Z 02009KT M08/M15 A306 RMK A01 T10791148  RH  058%=      5-min Rain = 0
KAM1 120413Z 01009KT M08/M15 A306 RMK A01 T10791147  RH  058%=      5-min Rain = 0
KAM1 120414Z 01008KT M08/M15 A306 RMK A01 T10791147  RH  058%=      5-min Rain = 0
KAM1 120415Z 01008KT M08/M15 A306 RMK A01 T10791147  RH  058%=      5-min Rain = 0
KAM1 120416Z 02008KT M08/M15 A306 RMK A01 T10801147  RH  058%=      5-min Rain = 0
KAM1 120417Z 01008KT M08/M15 A306 RMK A01 T10801148  RH  058%=      5-min Rain = 0
KAM1 120418Z 01008KT M08/M15 A306 RMK A01 T10811148  RH  058%=      5-min Rain = 0
KAM1 120419Z 01009KT M08/M15 A306 RMK A01 T10811148  RH  059%=      5-min Rain = 0
KAM1 120420Z 01008KT M08/M15 A306 RMK A01 T10811148  RH  059%=      5-min Rain = 0
KAM1 120421Z 01008KT M08/M15 A306 RMK A01 T10811148  RH  059%=      5-min Rain = 0
KAM1 120422Z 01008KT M08/M15 A306 RMK A01 T10811148  RH  059%=      5-min Rain = 0
KAM1 120423Z 01010KT M08/M15 A306 RMK A01 T10821147  RH  059%=      5-min Rain = 0
KAM1 120424Z 01008KT M08/M15 A306 RMK A01 T10821148  RH  059%=      5-min Rain = 0
KAM1 120425Z 01009KT M08/M15 A306 RMK A01 T10821148  RH  059%=      5-min Rain = 0
KAM1 120426Z 01009KT M08/M15 A306 RMK A01 T10821148  RH  059%=      5-min Rain = 0
KAM1 120427Z 01008KT M08/M15 A306 RMK A01 T10821148  RH  059%=      5-min Rain = 0
KAM1 120428Z 01008KT M08/M15 A306 RMK A01 T10821148  RH  059%=      5-min Rain = 0
KAM1 120429Z 01008KT M08/M15 A306 RMK A01 T10831148  RH  059%=      5-min Rain = 0
KAM1 120430Z 01008KT M08/M15 A306 RMK A01 T10841148  RH  060%=      5-min Rain = 0
KAM1 120431Z 01008KT M08/M15 A306 RMK A01 T10841148  RH  060%=      5-min Rain = 0
KAM1 120432Z 01008KT M08/M15 A306 RMK A01 T10841148  RH  060%=      5-min Rain = 0
KAM1 120433Z 01008KT M08/M15 A306 RMK A01 T10841148  RH  060%=      5-min Rain = 0
KAM1 120434Z 01008KT M09/M15 A306 RMK A01 T10851148  RH  060%=      5-min Rain = 0
KAM1 120435Z 01008KT M09/M15 A306 RMK A01 T10851148  RH  061%=      5-min Rain = 0
KAM1 120436Z 01008KT M09/M15 A306 RMK A01 T10861148  RH  061%=      5-min Rain = 0
KAM1 120437Z 01008KT M09/M15 A306 RMK A01 T10871148  RH  061%=      5-min Rain = 0
KAM1 120438Z 01008KT M09/M15 A306 RMK A01 T10871148  RH  061%=      5-min Rain = 0
KAM1 120439Z 01009KT M09/M15 A306 RMK A01 T10871148  RH  061%=      5-min Rain = 0
KAM1 120440Z 01008KT M09/M15 A306 RMK A01 T10871148  RH  061%=      5-min Rain = 0
KAM1 120441Z 01008KT M09/M15 A306 RMK A01 T10871148  RH  061%=      5-min Rain = 0
KAM1 120442Z 01008KT M09/M15 A306 RMK A01 T10871148  RH  061%=      5-min Rain = 0
KAM1 120443Z 01008KT M09/M15 A306 RMK A01 T10871148  RH  062%=      5-min Rain = 0
KAM1 120444Z 01008KT M09/M15 A306 RMK A01 T10871148  RH  062%=      5-min Rain = 0
KAM1 120445Z 01009KT M09/M15 A306 RMK A01 T10871148  RH  062%=      5-min Rain = 0
KAM1 120446Z 01008KT M09/M15 A306 RMK A01 T10871148  RH  061%=      5-min Rain = 0
KAM1 120447Z 01009KT M09/M15 A306 RMK A01 T10871148  RH  061%=      5-min Rain = 0
KAM1 120448Z 01010KT M09/M15 A306 RMK A01 T10861148  RH  061%=      5-min Rain = 0
KAM1 120449Z 01008KT M09/M15 A306 RMK A01 T10861148  RH  060%=      5-min Rain = 0
KAM1 120450Z 00010KT M09/M15 A306 RMK A01 T10861149  RH  060%=      5-min Rain = 0
KAM1 120451Z 01011KT M09/M15 A306 RMK A01 T10851149  RH  060%=      5-min Rain = 0
KAM1 120452Z 01011KT M09/M15 A306 RMK A01 T10851149  RH  060%=      5-min Rain = 0
KAM1 120453Z 01011KT M09/M15 A306 RMK A01 T10851149  RH  060%=      5-min Rain = 0
KAM1 120454Z 00011KT M08/M15 A306 RMK A01 T10841149  RH  059%=      5-min Rain = 0
KAM1 120455Z 01011KT M08/M15 A306 RMK A01 T10841149  RH  059%=      5-min Rain = 0
KAM1 120456Z 00011KT M08/M15 A306 RMK A01 T10841149  RH  059%=      5-min Rain = 0
KAM1 120457Z 00012KT M08/M15 A306 RMK A01 T10831149  RH  059%=      5-min Rain = 0
KAM1 120458Z 01012KT M08/M15 A306 RMK A01 T10841150  RH  059%=      5-min Rain = 0
KAM1 120459Z 01012KT M08/M15 A3059 RMK A01 T10841150  RH  059%=      5-min Rain = 0
KAM1 120500Z 00012KT M08/M15 A306 RMK A01 T10841150  RH  059%=      5-min Rain = 0
KAM1 120501Z 01011KT M08/M15 A3059 RMK A01 T10841150  RH  059%=      5-min Rain = 0
KAM1 120502Z 00012KT M08/M15 A3059 RMK A01 T10831150  RH  059%=      5-min Rain = 0
KAM1 120503Z 01011KT M08/M15 A3059 RMK A01 T10841150  RH  059%=      5-min Rain = 0
KAM1 120504Z 01011KT M08/M15 A3059 RMK A01 T10841151  RH  059%=      5-min Rain = 0
KAM1 120505Z 01010KT M09/M15 A3059 RMK A01 T10851151  RH  059%=      5-min Rain = 0
KAM1 120506Z 01010KT M09/M15 A3059 RMK A01 T10851151  RH  059%=      5-min Rain = 0
KAM1 120507Z 01011KT M09/M15 A3059 RMK A01 T10851151  RH  059%=      5-min Rain = 0
KAM1 120508Z 01011KT M09/M15 A3059 RMK A01 T10851151  RH  059%=      5-min Rain = 0
KAM1 120509Z 00011KT M09/M15 A3059 RMK A01 T10861152  RH  059%=      5-min Rain = 0
KAM1 120510Z 01012KT M09/M15 A3059 RMK A01 T10851152  RH  059%=      5-min Rain = 0
KAM1 120511Z 01009KT M09/M15 A3059 RMK A01 T10851151  RH  059%=      5-min Rain = 0
KAM1 120512Z 00010KT M09/M15 A3059 RMK A01 T10861152  RH  059%=      5-min Rain = 0
KAM1 120513Z 01009KT M09/M15 A3059 RMK A01 T10861152  RH  059%=      5-min Rain = 0
KAM1 120514Z 01009KT M09/M15 A306 RMK A01 T10861152  RH  059%=      5-min Rain = 0
KAM1 120515Z 01010KT M09/M15 A306 RMK A01 T10861152  RH  059%=      5-min Rain = 0
KAM1 120516Z 01009KT M09/M15 A306 RMK A01 T10861151  RH  059%=      5-min Rain = 0
KAM1 120517Z 01010KT M09/M15 A306 RMK A01 T10871152  RH  059%=      5-min Rain = 0
KAM1 120518Z 01010KT M09/M15 A306 RMK A01 T10871152  RH  059%=      5-min Rain = 0
KAM1 120519Z 01010KT M09/M15 A306 RMK A01 T10871152  RH  059%=      5-min Rain = 0
KAM1 120520Z 01008KT M09/M15 A306 RMK A01 T10871152  RH  059%=      5-min Rain = 0
KAM1 120521Z 01008KT M09/M15 A306 RMK A01 T10871152  RH  059%=      5-min Rain = 0
KAM1 120522Z 01009KT M09/M15 A306 RMK A01 T10871152  RH  059%=      5-min Rain = 0
KAM1 120523Z 01009KT M09/M15 A306 RMK A01 T10881152  RH  060%=      5-min Rain = 0
KAM1 120524Z 02009KT M09/M15 A306 RMK A01 T10881152  RH  060%=      5-min Rain = 0
KAM1 120525Z 01008KT M09/M15 A306 RMK A01 T10871152  RH  060%=      5-min Rain = 0
KAM1 120526Z 01008KT M09/M15 A306 RMK A01 T10871152  RH  060%=      5-min Rain = 0
KAM1 120527Z 01007KT M09/M15 A306 RMK A01 T10871152  RH  060%=      5-min Rain = 0
KAM1 120528Z 01009KT M09/M15 A306 RMK A01 T10881152  RH  060%=      5-min Rain = 0
KAM1 120529Z 01008KT M09/M15 A306 RMK A01 T10881152  RH  060%=      5-min Rain = 0
KAM1 120530Z 01008KT M09/M15 A306 RMK A01 T10881152  RH  060%=      5-min Rain = 0
KAM1 120531Z 01009KT M09/M15 A306 RMK A01 T10891152  RH  060%=      5-min Rain = 0
KAM1 120532Z 01009KT M09/M15 A306 RMK A01 T10891152  RH  060%=      5-min Rain = 0
KAM1 120533Z 01010KT M09/M15 A306 RMK A01 T10891152  RH  060%=      5-min Rain = 0
KAM1 120534Z 01010KT M09/M15 A306 RMK A01 T10891152  RH  060%=      5-min Rain = 0
KAM1 120535Z 01010KT M09/M15 A306 RMK A01 T10891151  RH  060%=      5-min Rain = 0
KAM1 120536Z 01010KT M09/M15 A306 RMK A01 T10891151  RH  060%=      5-min Rain = 0
KAM1 120537Z 02009KT M09/M15 A306 RMK A01 T10891152  RH  060%=      5-min Rain = 0
KAM1 120538Z 01010KT M09/M15 A306 RMK A01 T10891152  RH  060%=      5-min Rain = 0
KAM1 120539Z 01012KT M09/M15 A306 RMK A01 T10881152  RH  060%=      5-min Rain = 0
KAM1 120540Z 01011KT M09/M15 A306 RMK A01 T10891152  RH  060%=      5-min Rain = 0
KAM1 120541Z 02009KT M09/M15 A306 RMK A01 T10881152  RH  060%=      5-min Rain = 0
KAM1 120542Z 02008KT M09/M15 A306 RMK A01 T10881152  RH  060%=      5-min Rain = 0
KAM1 120543Z 01007KT M09/M15 A306 RMK A01 T10891152  RH  060%=      5-min Rain = 0
KAM1 120544Z 02009KT M09/M15 A306 RMK A01 T10891153  RH  060%=      5-min Rain = 0
KAM1 120545Z 02009KT M09/M15 A306 RMK A01 T10901153  RH  060%=      5-min Rain = 0
KAM1 120546Z 02007KT M09/M15 A306 RMK A01 T10901153  RH  060%=      5-min Rain = 0
KAM1 120547Z 02007KT M09/M15 A3061 RMK A01 T10901152  RH  060%=      5-min Rain = 0
KAM1 120548Z 02009KT M09/M15 A306 RMK A01 T10891152  RH  060%=      5-min Rain = 0
KAM1 120549Z 02008KT M09/M15 A306 RMK A01 T10891152  RH  060%=      5-min Rain = 0
KAM1 120550Z 02009KT M09/M15 A306 RMK A01 T10901152  RH  061%=      5-min Rain = 0
KAM1 120551Z 02008KT M09/M15 A306 RMK A01 T10901152  RH  061%=      5-min Rain = 0
KAM1 120552Z 02007KT M09/M15 A306 RMK A01 T10911152  RH  061%=      5-min Rain = 0
KAM1 120553Z 02008KT M09/M15 A306 RMK A01 T10911152  RH  061%=      5-min Rain = 0
KAM1 120554Z 02009KT M09/M15 A306 RMK A01 T10921152  RH  061%=      5-min Rain = 0
KAM1 120555Z 02010KT M09/M15 A306 RMK A01 T10921152  RH  062%=      5-min Rain = 0
KAM1 120556Z 01009KT M09/M15 A306 RMK A01 T10921152  RH  062%=      5-min Rain = 0
KAM1 120557Z 01009KT M09/M15 A306 RMK A01 T10921151  RH  062%=      5-min Rain = 0
KAM1 120558Z 01009KT M09/M15 A306 RMK A01 T10921151  RH  062%=      5-min Rain = 0
KAM1 120559Z 01010KT M09/M15 A306 RMK A01 T10931151  RH  062%=      5-min Rain = 0

Page generated in 0.0707 seconds.